Observation data for Stamford on 11/12/2019      Previous  Date       Current Mesonet Observations  Soil Data  Daily Summary Page  Observations in Plain Language
KST2 120600Z 01015KT M03/M10 A3065 RMK A01 T10301096  RH  061%=      5-min Rain = 0
KST2 120601Z 01016KT M03/M10 A3065 RMK A01 T10301095  RH  061%=      5-min Rain = 0
KST2 120602Z 01016KT M03/M10 A3065 RMK A01 T10301095  RH  061%=      5-min Rain = 0
KST2 120603Z 01014KT M03/M10 A3065 RMK A01 T10301096  RH  061%=      5-min Rain = 0
KST2 120604Z 01016KT M03/M10 A3065 RMK A01 T10311096  RH  061%=      5-min Rain = 0
KST2 120605Z 01016KT M03/M10 A3066 RMK A01 T10301096  RH  061%=      5-min Rain = 0
KST2 120606Z 01014KT M03/M10 A3066 RMK A01 T10301096  RH  061%=      5-min Rain = 0
KST2 120607Z 00015KT M03/M10 A3066 RMK A01 T10301095  RH  061%=      5-min Rain = 0
KST2 120608Z 01016KT M03/M10 A3066 RMK A01 T10311095  RH  061%=      5-min Rain = 0
KST2 120609Z 01015KT M03/M10 A3066 RMK A01 T10311096  RH  061%=      5-min Rain = 0
KST2 120610Z 01014KT M03/M10 A3066 RMK A01 T10311095  RH  061%=      5-min Rain = 0
KST2 120611Z 01014KT M03/M09 A3065 RMK A01 T10301094  RH  061%=      5-min Rain = 0
KST2 120612Z 01014KT M03/M09 A3065 RMK A01 T10301094  RH  062%=      5-min Rain = 0
KST2 120613Z 01017KT M03/M09 A3065 RMK A01 T10301094  RH  061%=      5-min Rain = 0
KST2 120614Z 01016KT M03/M10 A3065 RMK A01 T10311096  RH  061%=      5-min Rain = 0
KST2 120615Z 01016KT M03/M10 A3065 RMK A01 T10311096  RH  061%=      5-min Rain = 0
KST2 120616Z 01015KT M03/M10 A3065 RMK A01 T10311097  RH  060%=      5-min Rain = 0
KST2 120617Z 00016KT M03/M10 A3065 RMK A01 T10311096  RH  061%=      5-min Rain = 0
KST2 120618Z 00015KT M03/M10 A3065 RMK A01 T10311096  RH  061%=      5-min Rain = 0
KST2 120619Z 01014KT M03/M10 A3065 RMK A01 T10311095  RH  061%=      5-min Rain = 0
KST2 120620Z 00015KT M03/M10 A3065 RMK A01 T10311095  RH  061%=      5-min Rain = 0
KST2 120621Z 01014KT M03/M10 A3065 RMK A01 T10311096  RH  061%=      5-min Rain = 0
KST2 120622Z 00013KT M03/M10 A3065 RMK A01 T10311095  RH  061%=      5-min Rain = 0
KST2 120623Z 00014KT M03/M10 A3065 RMK A01 T10311095  RH  061%=      5-min Rain = 0
KST2 120624Z 00016KT M03/M10 A3065 RMK A01 T10311095  RH  061%=      5-min Rain = 0
KST2 120625Z 01014KT M03/M10 A3065 RMK A01 T10311096  RH  061%=      5-min Rain = 0
KST2 120626Z 00012KT M03/M10 A3065 RMK A01 T10311095  RH  061%=      5-min Rain = 0
KST2 120627Z 00013KT M03/M10 A3065 RMK A01 T10311095  RH  062%=      5-min Rain = 0
KST2 120628Z 00014KT M03/M09 A3065 RMK A01 T10321094  RH  062%=      5-min Rain = 0
KST2 120629Z 00014KT M03/M10 A3065 RMK A01 T10311095  RH  062%=      5-min Rain = 0
KST2 120630Z 01015KT M03/M10 A3065 RMK A01 T10321096  RH  061%=      5-min Rain = 0
KST2 120631Z 01017KT M03/M10 A3065 RMK A01 T10321096  RH  061%=      5-min Rain = 0
KST2 120632Z 01018KT M03/M10 A3065 RMK A01 T10321098  RH  060%=      5-min Rain = 0
KST2 120633Z 01019KT M03/M10 A3065 RMK A01 T10321098  RH  060%=      5-min Rain = 0
KST2 120634Z 01017KT M03/M10 A3065 RMK A01 T10321098  RH  060%=      5-min Rain = 0
KST2 120635Z 01016KT M03/M10 A3065 RMK A01 T10321098  RH  060%=      5-min Rain = 0
KST2 120636Z 01017KT M03/M10 A3065 RMK A01 T10321098  RH  060%=      5-min Rain = 0
KST2 120637Z 01018KT M03/M10 A3065 RMK A01 T10321098  RH  060%=      5-min Rain = 0
KST2 120638Z 00016KT M03/M10 A3065 RMK A01 T10321099  RH  060%=      5-min Rain = 0
KST2 120639Z 01017KT M03/M10 A3065 RMK A01 T10321099  RH  060%=      5-min Rain = 0
KST2 120640Z 01017KT M03/M10 A3065 RMK A01 T10321099  RH  060%=      5-min Rain = 0
KST2 120641Z 01016G21KT M03/M10 A3065 RMK A01 T10321099  RH  060%=      5-min Rain = 0
KST2 120642Z 01016KT M03/M10 A3064 RMK A01 T10321098  RH  060%=      5-min Rain = 0
KST2 120643Z 00014KT M03/M10 A3064 RMK A01 T10321098  RH  060%=      5-min Rain = 0
KST2 120644Z 36015KT M03/M10 A3064 RMK A01 T10321097  RH  061%=      5-min Rain = 0
KST2 120645Z 01014KT M03/M10 A3064 RMK A01 T10331097  RH  061%=      5-min Rain = 0
KST2 120646Z 00017KT M03/M10 A3065 RMK A01 T10331097  RH  061%=      5-min Rain = 0
KST2 120647Z 00017KT M03/M10 A3065 RMK A01 T10331097  RH  061%=      5-min Rain = 0
KST2 120648Z 00016KT M03/M10 A3065 RMK A01 T10331098  RH  061%=      5-min Rain = 0
KST2 120649Z 01017KT M03/M10 A3065 RMK A01 T10331099  RH  061%=      5-min Rain = 0
KST2 120650Z 00019KT M03/M10 A3065 RMK A01 T10331100  RH  060%=      5-min Rain = 0
KST2 120651Z 00016KT M03/M10 A3065 RMK A01 T10331100  RH  060%=      5-min Rain = 0
KST2 120652Z 00017KT M03/M10 A3065 RMK A01 T10331100  RH  060%=      5-min Rain = 0
KST2 120653Z 01014KT M03/M10 A3065 RMK A01 T10331100  RH  060%=      5-min Rain = 0
KST2 120654Z 00017KT M03/M10 A3065 RMK A01 T10331099  RH  061%=      5-min Rain = 0
KST2 120655Z 01017KT M03/M10 A3065 RMK A01 T10331100  RH  060%=      5-min Rain = 0
KST2 120656Z 01015KT M03/M10 A3065 RMK A01 T10341100  RH  060%=      5-min Rain = 0
KST2 120657Z 01014KT M03/M10 A3065 RMK A01 T10341099  RH  061%=      5-min Rain = 0
KST2 120658Z 01011KT M03/M10 A3065 RMK A01 T10341098  RH  061%=      5-min Rain = 0
KST2 120659Z 00015KT M03/M10 A3065 RMK A01 T10341098  RH  061%=      5-min Rain = 0
KST2 120700Z 01017KT M03/M10 A3065 RMK A01 T10341099  RH  061%=      5-min Rain = 0
KST2 120701Z 01016KT M03/M10 A3065 RMK A01 T10341100  RH  060%=      5-min Rain = 0
KST2 120702Z 00017KT M03/M10 A3065 RMK A01 T10341100  RH  060%=      5-min Rain = 0
KST2 120703Z 01015KT M03/M10 A3065 RMK A01 T10341100  RH  060%=      5-min Rain = 0
KST2 120704Z 01015KT M04/M10 A3065 RMK A01 T10351100  RH  061%=      5-min Rain = 0
KST2 120705Z 00016G21KT M04/M10 A3065 RMK A01 T10351100  RH  061%=      5-min Rain = 0
KST2 120706Z 01021KT M04/M10 A3065 RMK A01 T10351100  RH  060%=      5-min Rain = 0
KST2 120707Z 01020KT M04/M10 A3065 RMK A01 T10351102  RH  060%=      5-min Rain = 0
KST2 120708Z 00018KT M04/M10 A3065 RMK A01 T10351102  RH  060%=      5-min Rain = 0
KST2 120709Z 00014G19KT M04/M10 A3065 RMK A01 T10351101  RH  060%=      5-min Rain = 0
KST2 120710Z 00020KT M04/M10 A3065 RMK A01 T10351100  RH  061%=      5-min Rain = 0
KST2 120711Z 00017KT M04/M10 A3065 RMK A01 T10351101  RH  060%=      5-min Rain = 0
KST2 120712Z 01015KT M04/M10 A3065 RMK A01 T10351101  RH  060%=      5-min Rain = 0
KST2 120713Z 36017KT M04/M10 A3065 RMK A01 T10361101  RH  061%=      5-min Rain = 0
KST2 120714Z 00018KT M04/M10 A3065 RMK A01 T10361101  RH  060%=      5-min Rain = 0
KST2 120715Z 01019KT M04/M10 A3065 RMK A01 T10361102  RH  060%=      5-min Rain = 0
KST2 120716Z 01018KT M04/M10 A3065 RMK A01 T10361103  RH  060%=      5-min Rain = 0
KST2 120717Z 01019KT M04/M10 A3065 RMK A01 T10361103  RH  060%=      5-min Rain = 0
KST2 120718Z 01018KT M04/M10 A3065 RMK A01 T10371103  RH  060%=      5-min Rain = 0
KST2 120719Z 01017G22KT M04/M10 A3065 RMK A01 T10371103  RH  060%=      5-min Rain = 0
KST2 120720Z 01016KT M04/M10 A3065 RMK A01 T10371103  RH  060%=      5-min Rain = 0
KST2 120721Z 00017G22KT M04/M10 A3065 RMK A01 T10371103  RH  060%=      5-min Rain = 0
KST2 120722Z 00018KT M04/M10 A3065 RMK A01 T10371103  RH  060%=      5-min Rain = 0
KST2 120723Z 00017KT M04/M10 A3065 RMK A01 T10371103  RH  060%=      5-min Rain = 0
KST2 120724Z 00016KT M04/M10 A3065 RMK A01 T10371103  RH  060%=      5-min Rain = 0
KST2 120725Z 01018KT M04/M10 A3065 RMK A01 T10371102  RH  061%=      5-min Rain = 0
KST2 120726Z 00017KT M04/M10 A3065 RMK A01 T10371103  RH  060%=      5-min Rain = 0
KST2 120727Z 00016KT M04/M10 A3065 RMK A01 T10371103  RH  060%=      5-min Rain = 0
KST2 120728Z 00018KT M04/M10 A3065 RMK A01 T10371103  RH  060%=      5-min Rain = 0
KST2 120729Z 00018KT M04/M10 A3065 RMK A01 T10381104  RH  060%=      5-min Rain = 0
KST2 120730Z 00018KT M04/M11 A3065 RMK A01 T10381105  RH  060%=      5-min Rain = 0
KST2 120731Z 00020KT M04/M10 A3065 RMK A01 T10381104  RH  060%=      5-min Rain = 0
KST2 120732Z 00018KT M04/M11 A3065 RMK A01 T10381105  RH  060%=      5-min Rain = 0
KST2 120733Z 00020KT M04/M11 A3065 RMK A01 T10381105  RH  060%=      5-min Rain = 0
KST2 120734Z 01023KT M04/M11 A3065 RMK A01 T10381106  RH  059%=      5-min Rain = 0
KST2 120735Z 01020KT M04/M11 A3065 RMK A01 T10381107  RH  059%=      5-min Rain = 0
KST2 120736Z 00019KT M04/M11 A3065 RMK A01 T10381107  RH  059%=      5-min Rain = 0
KST2 120737Z 01018KT M04/M11 A3065 RMK A01 T10381107  RH  059%=      5-min Rain = 0
KST2 120738Z 01018KT M04/M11 A3065 RMK A01 T10381106  RH  059%=      5-min Rain = 0
KST2 120739Z 00017KT M04/M11 A3065 RMK A01 T10381106  RH  059%=      5-min Rain = 0
KST2 120740Z 01017KT M04/M11 A3065 RMK A01 T10381105  RH  060%=      5-min Rain = 0
KST2 120741Z 01018KT M04/M11 A3065 RMK A01 T10391105  RH  060%=      5-min Rain = 0
KST2 120742Z 01020KT M04/M11 A3065 RMK A01 T10391105  RH  060%=      5-min Rain = 0
KST2 120743Z 01020KT M04/M11 A3065 RMK A01 T10391106  RH  059%=      5-min Rain = 0
KST2 120744Z 01018KT M04/M11 A3065 RMK A01 T10391106  RH  059%=      5-min Rain = 0
KST2 120745Z 01015KT M04/M11 A3065 RMK A01 T10391105  RH  060%=      5-min Rain = 0
KST2 120746Z 00014KT M04/M10 A3065 RMK A01 T10391104  RH  061%=      5-min Rain = 0
KST2 120747Z 00012KT M04/M10 A3065 RMK A01 T10391102  RH  061%=      5-min Rain = 0
KST2 120748Z 00014KT M04/M10 A3065 RMK A01 T10391102  RH  061%=      5-min Rain = 0
KST2 120749Z 36016KT M04/M10 A3065 RMK A01 T10391103  RH  061%=      5-min Rain = 0
KST2 120750Z 00018KT M04/M10 A3065 RMK A01 T10391103  RH  061%=      5-min Rain = 0
KST2 120751Z 00019G24KT M04/M10 A3065 RMK A01 T10401104  RH  061%=      5-min Rain = 0
KST2 120752Z 00017KT M04/M11 A3065 RMK A01 T10401105  RH  061%=      5-min Rain = 0
KST2 120753Z 01016G21KT M04/M11 A3065 RMK A01 T10401105  RH  061%=      5-min Rain = 0
KST2 120754Z 00017KT M04/M10 A3065 RMK A01 T10401104  RH  061%=      5-min Rain = 0
KST2 120755Z 00019KT M04/M11 A3065 RMK A01 T10411105  RH  061%=      5-min Rain = 0
KST2 120756Z 36019KT M04/M11 A3065 RMK A01 T10411105  RH  061%=      5-min Rain = 0
KST2 120757Z 00017KT M04/M11 A3065 RMK A01 T10401105  RH  061%=      5-min Rain = 0
KST2 120758Z 01019KT M04/M10 A3065 RMK A01 T10401104  RH  061%=      5-min Rain = 0
KST2 120759Z 00017KT M04/M11 A3065 RMK A01 T10411106  RH  060%=      5-min Rain = 0
KST2 120800Z 00016KT M04/M11 A3065 RMK A01 T10411106  RH  061%=      5-min Rain = 0
KST2 120801Z 00018KT M04/M11 A3065 RMK A01 T10411106  RH  061%=      5-min Rain = 0
KST2 120802Z 01020KT M04/M11 A3065 RMK A01 T10411106  RH  061%=      5-min Rain = 0
KST2 120803Z 01017KT M04/M11 A3065 RMK A01 T10411107  RH  060%=      5-min Rain = 0
KST2 120804Z 01016KT M04/M11 A3065 RMK A01 T10421107  RH  061%=      5-min Rain = 0
KST2 120805Z 36017KT M04/M11 A3065 RMK A01 T10421106  RH  061%=      5-min Rain = 0
KST2 120806Z 36018KT M04/M11 A3065 RMK A01 T10421105  RH  061%=      5-min Rain = 0
KST2 120807Z 00021KT M04/M11 A3065 RMK A01 T10421106  RH  061%=      5-min Rain = 0
KST2 120808Z 00020KT M04/M11 A3065 RMK A01 T10421107  RH  060%=      5-min Rain = 0
KST2 120809Z 00017KT M04/M11 A3065 RMK A01 T10421107  RH  060%=      5-min Rain = 0
KST2 120810Z 35020KT M04/M11 A3065 RMK A01 T10421107  RH  061%=      5-min Rain = 0
KST2 120811Z 36021KT M04/M11 A3065 RMK A01 T10421106  RH  061%=      5-min Rain = 0
KST2 120812Z 00023KT M04/M11 A3065 RMK A01 T10421108  RH  060%=      5-min Rain = 0
KST2 120813Z 00023KT M04/M11 A3065 RMK A01 T10431111  RH  059%=      5-min Rain = 0
KST2 120814Z 00021KT M04/M11 A3065 RMK A01 T10431113  RH  058%=      5-min Rain = 0
KST2 120815Z 00020KT M04/M11 A3065 RMK A01 T10431113  RH  058%=      5-min Rain = 0
KST2 120816Z 00021KT M04/M11 A3065 RMK A01 T10441113  RH  059%=      5-min Rain = 0
KST2 120817Z 01020KT M04/M11 A3065 RMK A01 T10441113  RH  058%=      5-min Rain = 0
KST2 120818Z 00020KT M04/M11 A3065 RMK A01 T10441114  RH  058%=      5-min Rain = 0
KST2 120819Z 01018KT M04/M11 A3066 RMK A01 T10441114  RH  058%=      5-min Rain = 0
KST2 120820Z 00022KT M04/M11 A3066 RMK A01 T10441113  RH  059%=      5-min Rain = 0
KST2 120821Z 01020KT M04/M11 A3066 RMK A01 T10441114  RH  058%=      5-min Rain = 0
KST2 120822Z 00019KT M04/M11 A3066 RMK A01 T10441114  RH  058%=      5-min Rain = 0
KST2 120823Z 01016KT M05/M12 A3066 RMK A01 T10451115  RH  058%=      5-min Rain = 0
KST2 120824Z 00016KT M04/M11 A3066 RMK A01 T10441113  RH  059%=      5-min Rain = 0
KST2 120825Z 00015KT M05/M11 A3066 RMK A01 T10451113  RH  059%=      5-min Rain = 0
KST2 120826Z 01017G22KT M05/M11 A3066 RMK A01 T10451113  RH  059%=      5-min Rain = 0
KST2 120827Z 01018G23KT M05/M12 A3066 RMK A01 T10451115  RH  058%=      5-min Rain = 0
KST2 120828Z 00016KT M05/M12 A3066 RMK A01 T10451115  RH  058%=      5-min Rain = 0
KST2 120829Z 00017KT M05/M12 A3066 RMK A01 T10461115  RH  058%=      5-min Rain = 0
KST2 120830Z 00020G25KT M05/M12 A3066 RMK A01 T10461115  RH  058%=      5-min Rain = 0
KST2 120831Z 36016KT M05/M12 A3066 RMK A01 T10461116  RH  058%=      5-min Rain = 0
KST2 120832Z 00015KT M05/M12 A3066 RMK A01 T10451115  RH  058%=      5-min Rain = 0
KST2 120833Z 00014KT M05/M12 A3066 RMK A01 T10461115  RH  058%=      5-min Rain = 0
KST2 120834Z 36015KT M05/M12 A3066 RMK A01 T10461115  RH  059%=      5-min Rain = 0
KST2 120835Z 00015KT M05/M11 A3066 RMK A01 T10461114  RH  059%=      5-min Rain = 0
KST2 120836Z 01017KT M05/M12 A3066 RMK A01 T10461115  RH  059%=      5-min Rain = 0
KST2 120837Z 36016KT M05/M12 A3067 RMK A01 T10471115  RH  059%=      5-min Rain = 0
KST2 120838Z 00018KT M05/M12 A3067 RMK A01 T10471116  RH  059%=      5-min Rain = 0
KST2 120839Z 00018KT M05/M12 A3067 RMK A01 T10471116  RH  059%=      5-min Rain = 0
KST2 120840Z 00017G22KT M05/M12 A3067 RMK A01 T10471117  RH  058%=      5-min Rain = 0
KST2 120841Z 36016KT M05/M12 A3067 RMK A01 T10471116  RH  058%=      5-min Rain = 0
KST2 120842Z 00020KT M05/M12 A3067 RMK A01 T10481118  RH  058%=      5-min Rain = 0
KST2 120843Z 01019KT M05/M12 A3067 RMK A01 T10481120  RH  057%=      5-min Rain = 0
KST2 120844Z 00017KT M05/M12 A3067 RMK A01 T10491122  RH  056%=      5-min Rain = 0
KST2 120845Z 01020G25KT M05/M12 A3067 RMK A01 T10491123  RH  056%=      5-min Rain = 0
KST2 120846Z 01017G24KT M05/M12 A3067 RMK A01 T10491123  RH  056%=      5-min Rain = 0
KST2 120847Z 01018KT M05/M13 A3067 RMK A01 T10491125  RH  055%=      5-min Rain = 0
KST2 120848Z 01018KT M05/M13 A3067 RMK A01 T10491126  RH  055%=      5-min Rain = 0
KST2 120849Z 00018KT M05/M13 A3067 RMK A01 T10491126  RH  055%=      5-min Rain = 0
KST2 120850Z 01015KT M05/M13 A3067 RMK A01 T10491126  RH  055%=      5-min Rain = 0
KST2 120851Z 01019KT M05/M13 A3067 RMK A01 T10491126  RH  055%=      5-min Rain = 0
KST2 120852Z 00018KT M05/M13 A3067 RMK A01 T10501128  RH  054%=      5-min Rain = 0
KST2 120853Z 01017KT M05/M13 A3067 RMK A01 T10501128  RH  054%=      5-min Rain = 0
KST2 120854Z 01016KT M05/M13 A3067 RMK A01 T10501127  RH  055%=      5-min Rain = 0
KST2 120855Z 01017KT M05/M13 A3067 RMK A01 T10501127  RH  055%=      5-min Rain = 0
KST2 120856Z 01018KT M05/M13 A3067 RMK A01 T10501128  RH  055%=      5-min Rain = 0
KST2 120857Z 01017KT M05/M13 A3067 RMK A01 T10501127  RH  055%=      5-min Rain = 0
KST2 120858Z 01018KT M05/M13 A3067 RMK A01 T10501128  RH  055%=      5-min Rain = 0
KST2 120859Z 01017KT M05/M13 A3067 RMK A01 T10511128  RH  054%=      5-min Rain = 0
KST2 120900Z 01018KT M05/M13 A3067 RMK A01 T10511128  RH  055%=      5-min Rain = 0
KST2 120901Z 01016KT M05/M13 A3067 RMK A01 T10511127  RH  055%=      5-min Rain = 0
KST2 120902Z 01017KT M05/M13 A3067 RMK A01 T10511126  RH  056%=      5-min Rain = 0
KST2 120903Z 01016KT M05/M13 A3067 RMK A01 T10511125  RH  056%=      5-min Rain = 0
KST2 120904Z 01014KT M05/M13 A3067 RMK A01 T10511125  RH  056%=      5-min Rain = 0
KST2 120905Z 01016KT M05/M12 A3067 RMK A01 T10511124  RH  056%=      5-min Rain = 0
KST2 120906Z 01016KT M05/M12 A3067 RMK A01 T10511124  RH  057%=      5-min Rain = 0
KST2 120907Z 01017KT M05/M13 A3067 RMK A01 T10521125  RH  056%=      5-min Rain = 0
KST2 120908Z 01015KT M05/M13 A3067 RMK A01 T10521125  RH  056%=      5-min Rain = 0
KST2 120909Z 01015KT M05/M12 A3067 RMK A01 T10511124  RH  057%=      5-min Rain = 0
KST2 120910Z 01013KT M05/M12 A3067 RMK A01 T10511124  RH  057%=      5-min Rain = 0
KST2 120911Z 01012KT M05/M12 A3067 RMK A01 T10521124  RH  057%=      5-min Rain = 0
KST2 120912Z 01011KT M05/M12 A3067 RMK A01 T10521123  RH  058%=      5-min Rain = 0
KST2 120913Z 02011KT M05/M12 A3067 RMK A01 T10521122  RH  058%=      5-min Rain = 0
KST2 120914Z 01013KT M05/M12 A3067 RMK A01 T10531122  RH  058%=      5-min Rain = 0
KST2 120915Z 01013KT M05/M12 A3067 RMK A01 T10531122  RH  058%=      5-min Rain = 0
KST2 120916Z 01012KT M05/M12 A3067 RMK A01 T10531122  RH  058%=      5-min Rain = 0
KST2 120917Z 01012KT M05/M12 A3067 RMK A01 T10531121  RH  059%=      5-min Rain = 0
KST2 120918Z 01012KT M05/M12 A3067 RMK A01 T10531121  RH  059%=      5-min Rain = 0
KST2 120919Z 01012KT M05/M12 A3067 RMK A01 T10531121  RH  059%=      5-min Rain = 0
KST2 120920Z 36013KT M05/M12 A3066 RMK A01 T10541121  RH  059%=      5-min Rain = 0
KST2 120921Z 00015KT M05/M12 A3066 RMK A01 T10531121  RH  059%=      5-min Rain = 0
KST2 120922Z 01016KT M05/M12 A3066 RMK A01 T10531120  RH  059%=      5-min Rain = 0
KST2 120923Z 01015KT M05/M12 A3066 RMK A01 T10531120  RH  059%=      5-min Rain = 0
KST2 120924Z 01017KT M05/M12 A3066 RMK A01 T10531120  RH  059%=      5-min Rain = 0
KST2 120925Z 01017G22KT M05/M12 A3066 RMK A01 T10531121  RH  059%=      5-min Rain = 0
KST2 120926Z 01018KT M05/M12 A3066 RMK A01 T10531121  RH  059%=      5-min Rain = 0
KST2 120927Z 01016KT M05/M12 A3067 RMK A01 T10531121  RH  059%=      5-min Rain = 0
KST2 120928Z 01014KT M05/M12 A3067 RMK A01 T10531121  RH  059%=      5-min Rain = 0
KST2 120929Z 01015KT M05/M12 A3067 RMK A01 T10531120  RH  059%=      5-min Rain = 0
KST2 120930Z 01013KT M05/M12 A3067 RMK A01 T10541120  RH  060%=      5-min Rain = 0
KST2 120931Z 01013KT M05/M12 A3067 RMK A01 T10531119  RH  060%=      5-min Rain = 0
KST2 120932Z 01015KT M05/M12 A3067 RMK A01 T10531118  RH  060%=      5-min Rain = 0
KST2 120933Z 01015KT M05/M12 A3067 RMK A01 T10541119  RH  060%=      5-min Rain = 0
KST2 120934Z 01016KT M05/M12 A3067 RMK A01 T10541119  RH  060%=      5-min Rain = 0
KST2 120935Z 01016KT M05/M12 A3067 RMK A01 T10541119  RH  060%=      5-min Rain = 0
KST2 120936Z 01017KT M05/M12 A3067 RMK A01 T10541120  RH  060%=      5-min Rain = 0
KST2 120937Z 01015KT M06/M12 A3067 RMK A01 T10551120  RH  060%=      5-min Rain = 0
KST2 120938Z 01013KT M05/M12 A3067 RMK A01 T10541119  RH  060%=      5-min Rain = 0
KST2 120939Z 36012KT M05/M12 A3067 RMK A01 T10541118  RH  061%=      5-min Rain = 0
KST2 120940Z 00013KT M06/M12 A3067 RMK A01 T10551118  RH  061%=      5-min Rain = 0
KST2 120941Z 01015KT M06/M12 A3067 RMK A01 T10551118  RH  061%=      5-min Rain = 0
KST2 120942Z 00016KT M06/M12 A3067 RMK A01 T10551117  RH  061%=      5-min Rain = 0
KST2 120943Z 00017KT M06/M12 A3067 RMK A01 T10551118  RH  061%=      5-min Rain = 0
KST2 120944Z 01015G20KT M06/M12 A3068 RMK A01 T10551119  RH  061%=      5-min Rain = 0
KST2 120945Z 01016KT M06/M12 A3068 RMK A01 T10551120  RH  061%=      5-min Rain = 0
KST2 120946Z 01015KT M06/M12 A3068 RMK A01 T10561120  RH  061%=      5-min Rain = 0
KST2 120947Z 00015KT M06/M12 A3068 RMK A01 T10561120  RH  061%=      5-min Rain = 0
KST2 120948Z 01014KT M06/M12 A3068 RMK A01 T10561120  RH  061%=      5-min Rain = 0
KST2 120949Z 01014KT M06/M12 A3068 RMK A01 T10561120  RH  061%=      5-min Rain = 0
KST2 120950Z 36016KT M06/M12 A3068 RMK A01 T10561118  RH  061%=      5-min Rain = 0
KST2 120951Z 00015KT M06/M12 A3068 RMK A01 T10561119  RH  061%=      5-min Rain = 0
KST2 120952Z 01019KT M06/M12 A3068 RMK A01 T10561120  RH  061%=      5-min Rain = 0
KST2 120953Z 01017KT M06/M12 A3068 RMK A01 T10561121  RH  060%=      5-min Rain = 0
KST2 120954Z 01017KT M06/M12 A3068 RMK A01 T10561121  RH  060%=      5-min Rain = 0
KST2 120955Z 01015KT M06/M12 A3068 RMK A01 T10571121  RH  060%=      5-min Rain = 0
KST2 120956Z 01017KT M06/M12 A3068 RMK A01 T10571121  RH  060%=      5-min Rain = 0
KST2 120957Z 00017KT M06/M12 A3068 RMK A01 T10571121  RH  060%=      5-min Rain = 0
KST2 120958Z 01014KT M06/M12 A3068 RMK A01 T10571122  RH  060%=      5-min Rain = 0
KST2 120959Z 01015KT M06/M12 A3068 RMK A01 T10571121  RH  061%=      5-min Rain = 0
KST2 121000Z 01014KT M06/M12 A3068 RMK A01 T10571121  RH  061%=      5-min Rain = 0
KST2 121001Z 01012KT M06/M12 A3068 RMK A01 T10571121  RH  061%=      5-min Rain = 0
KST2 121002Z 01013KT M06/M12 A3068 RMK A01 T10571120  RH  061%=      5-min Rain = 0
KST2 121003Z 00013KT M06/M12 A3068 RMK A01 T10581120  RH  062%=      5-min Rain = 0
KST2 121004Z 01012KT M06/M12 A3068 RMK A01 T10581120  RH  062%=      5-min Rain = 0
KST2 121005Z 01013KT M06/M12 A3068 RMK A01 T10571119  RH  062%=      5-min Rain = 0
KST2 121006Z 00013KT M06/M12 A3068 RMK A01 T10581120  RH  061%=      5-min Rain = 0
KST2 121007Z 00012KT M06/M12 A3068 RMK A01 T10581120  RH  062%=      5-min Rain = 0
KST2 121008Z 01011KT M06/M12 A3068 RMK A01 T10581120  RH  062%=      5-min Rain = 0
KST2 121009Z 01012KT M06/M12 A3068 RMK A01 T10581119  RH  062%=      5-min Rain = 0
KST2 121010Z 01011KT M06/M12 A3068 RMK A01 T10581119  RH  062%=      5-min Rain = 0
KST2 121011Z 00011KT M06/M12 A3068 RMK A01 T10581118  RH  063%=      5-min Rain = 0
KST2 121012Z 01014KT M06/M12 A3068 RMK A01 T10591119  RH  062%=      5-min Rain = 0
KST2 121013Z 36013KT M06/M12 A3068 RMK A01 T10581119  RH  062%=      5-min Rain = 0
KST2 121014Z 36016KT M06/M12 A3068 RMK A01 T10581119  RH  062%=      5-min Rain = 0
KST2 121015Z 00017KT M06/M12 A3068 RMK A01 T10591120  RH  062%=      5-min Rain = 0
KST2 121016Z 00014KT M06/M12 A3068 RMK A01 T10591121  RH  061%=      5-min Rain = 0
KST2 121017Z 01017KT M06/M12 A3068 RMK A01 T10581120  RH  062%=      5-min Rain = 0
KST2 121018Z 01016KT M06/M12 A3068 RMK A01 T10591122  RH  061%=      5-min Rain = 0
KST2 121019Z 00016KT M06/M12 A3068 RMK A01 T10591122  RH  061%=      5-min Rain = 0
KST2 121020Z 00018KT M06/M12 A3068 RMK A01 T10591122  RH  061%=      5-min Rain = 0
KST2 121021Z 36017KT M06/M12 A3068 RMK A01 T10591122  RH  061%=      5-min Rain = 0
KST2 121022Z 01018KT M06/M12 A3068 RMK A01 T10591122  RH  061%=      5-min Rain = 0
KST2 121023Z 00016KT M06/M12 A3067 RMK A01 T10591122  RH  061%=      5-min Rain = 0
KST2 121024Z 01015KT M06/M12 A3068 RMK A01 T10591122  RH  061%=      5-min Rain = 0
KST2 121025Z 01014KT M06/M12 A3068 RMK A01 T10591122  RH  061%=      5-min Rain = 0
KST2 121026Z 01014KT M06/M12 A3068 RMK A01 T10591121  RH  061%=      5-min Rain = 0
KST2 121027Z 01013KT M06/M12 A3068 RMK A01 T10601122  RH  061%=      5-min Rain = 0
KST2 121028Z 01011KT M06/M12 A3068 RMK A01 T10601121  RH  062%=      5-min Rain = 0
KST2 121029Z 00013G18KT M06/M12 A3067 RMK A01 T10601120  RH  062%=      5-min Rain = 0
KST2 121030Z 00016KT M06/M12 A3067 RMK A01 T10601121  RH  062%=      5-min Rain = 0
KST2 121031Z 00015KT M06/M12 A3067 RMK A01 T10611122  RH  062%=      5-min Rain = 0
KST2 121032Z 01016KT M06/M12 A3067 RMK A01 T10601122  RH  062%=      5-min Rain = 0
KST2 121033Z 01015KT M06/M12 A3067 RMK A01 T10601123  RH  061%=      5-min Rain = 0
KST2 121034Z 01018KT M06/M12 A3067 RMK A01 T10601123  RH  061%=      5-min Rain = 0
KST2 121035Z 01016KT M06/M12 A3067 RMK A01 T10611124  RH  061%=      5-min Rain = 0
KST2 121036Z 01015KT M06/M12 A3067 RMK A01 T10611124  RH  061%=      5-min Rain = 0
KST2 121037Z 01015KT M06/M12 A3067 RMK A01 T10611123  RH  061%=      5-min Rain = 0
KST2 121038Z 01014KT M06/M12 A3067 RMK A01 T10611123  RH  061%=      5-min Rain = 0
KST2 121039Z 00014KT M06/M12 A3067 RMK A01 T10611123  RH  062%=      5-min Rain = 0
KST2 121040Z 00014KT M06/M12 A3067 RMK A01 T10611123  RH  062%=      5-min Rain = 0
KST2 121041Z 00013KT M06/M12 A3067 RMK A01 T10611123  RH  062%=      5-min Rain = 0
KST2 121042Z 01012KT M06/M12 A3067 RMK A01 T10611122  RH  062%=      5-min Rain = 0
KST2 121043Z 01013G19KT M06/M12 A3067 RMK A01 T10611121  RH  062%=      5-min Rain = 0
KST2 121044Z 01014KT M06/M12 A3067 RMK A01 T10611122  RH  062%=      5-min Rain = 0
KST2 121045Z 01017KT M06/M12 A3067 RMK A01 T10621123  RH  062%=      5-min Rain = 0
KST2 121046Z 02017KT M06/M13 A3067 RMK A01 T10621126  RH  061%=      5-min Rain = 0
KST2 121047Z 01017KT M06/M13 A3067 RMK A01 T10631127  RH  060%=      5-min Rain = 0
KST2 121048Z 01019KT M06/M13 A3067 RMK A01 T10631128  RH  060%=      5-min Rain = 0
KST2 121049Z 01018KT M06/M13 A3067 RMK A01 T10621128  RH  060%=      5-min Rain = 0
KST2 121050Z 01016KT M06/M13 A3067 RMK A01 T10631129  RH  060%=      5-min Rain = 0
KST2 121051Z 01018KT M06/M13 A3067 RMK A01 T10631129  RH  060%=      5-min Rain = 0
KST2 121052Z 01017KT M06/M13 A3067 RMK A01 T10631129  RH  060%=      5-min Rain = 0
KST2 121053Z 01016KT M06/M13 A3067 RMK A01 T10631128  RH  060%=      5-min Rain = 0
KST2 121054Z 01013KT M06/M13 A3067 RMK A01 T10631128  RH  060%=      5-min Rain = 0
KST2 121055Z 01013KT M06/M13 A3067 RMK A01 T10631127  RH  061%=      5-min Rain = 0
KST2 121056Z 01015KT M06/M13 A3067 RMK A01 T10631126  RH  061%=      5-min Rain = 0
KST2 121057Z 01013KT M06/M13 A3067 RMK A01 T10631126  RH  061%=      5-min Rain = 0
KST2 121058Z 01012KT M06/M13 A3067 RMK A01 T10631126  RH  061%=      5-min Rain = 0
KST2 121059Z 01014KT M06/M13 A3067 RMK A01 T10631126  RH  061%=      5-min Rain = 0
KST2 121100Z 00016KT M06/M13 A3067 RMK A01 T10631127  RH  061%=      5-min Rain = 0
KST2 121101Z 01015KT M06/M13 A3067 RMK A01 T10641128  RH  060%=      5-min Rain = 0
KST2 121102Z 01014KT M06/M13 A3067 RMK A01 T10641127  RH  061%=      5-min Rain = 0
KST2 121103Z 01013KT M06/M13 A3067 RMK A01 T10641127  RH  061%=      5-min Rain = 0
KST2 121104Z 00012KT M06/M13 A3067 RMK A01 T10631126  RH  061%=      5-min Rain = 0
KST2 121105Z 00014KT M06/M13 A3067 RMK A01 T10631126  RH  061%=      5-min Rain = 0
KST2 121106Z 00013KT M06/M13 A3067 RMK A01 T10641126  RH  061%=      5-min Rain = 0
KST2 121107Z 01013KT M06/M13 A3067 RMK A01 T10641126  RH  061%=      5-min Rain = 0
KST2 121108Z 00015KT M06/M13 A3067 RMK A01 T10641125  RH  062%=      5-min Rain = 0
KST2 121109Z 01016KT M06/M13 A3067 RMK A01 T10631125  RH  062%=      5-min Rain = 0
KST2 121110Z 01012KT M06/M13 A3067 RMK A01 T10641126  RH  061%=      5-min Rain = 0
KST2 121111Z 01012KT M06/M13 A3067 RMK A01 T10641125  RH  062%=      5-min Rain = 0
KST2 121112Z 00011KT M06/M12 A3067 RMK A01 T10631124  RH  062%=      5-min Rain = 0
KST2 121113Z 00011KT M06/M12 A3067 RMK A01 T10641124  RH  062%=      5-min Rain = 0
KST2 121114Z 00009KT M06/M12 A3067 RMK A01 T10641123  RH  063%=      5-min Rain = 0
KST2 121115Z 00014KT M06/M12 A3067 RMK A01 T10631123  RH  063%=      5-min Rain = 0
KST2 121116Z 00014KT M06/M12 A3067 RMK A01 T10631123  RH  063%=      5-min Rain = 0
KST2 121117Z 01011KT M06/M12 A3067 RMK A01 T10641123  RH  062%=      5-min Rain = 0
KST2 121118Z 00010KT M06/M12 A3067 RMK A01 T10641123  RH  063%=      5-min Rain = 0
KST2 121119Z 00012KT M06/M12 A3067 RMK A01 T10641122  RH  063%=      5-min Rain = 0
KST2 121120Z 36013KT M06/M12 A3067 RMK A01 T10631122  RH  063%=      5-min Rain = 0
KST2 121121Z 36014KT M06/M12 A3067 RMK A01 T10641122  RH  063%=      5-min Rain = 0
KST2 121122Z 01014KT M06/M12 A3067 RMK A01 T10641122  RH  063%=      5-min Rain = 0
KST2 121123Z 00012KT M06/M12 A3067 RMK A01 T10631122  RH  063%=      5-min Rain = 0
KST2 121124Z 00012KT M06/M12 A3067 RMK A01 T10641123  RH  063%=      5-min Rain = 0
KST2 121125Z 00013KT M06/M12 A3067 RMK A01 T10641123  RH  063%=      5-min Rain = 0
KST2 121126Z 01012KT M06/M12 A3067 RMK A01 T10641123  RH  063%=      5-min Rain = 0
KST2 121127Z 01010KT M06/M12 A3067 RMK A01 T10641122  RH  063%=      5-min Rain = 0
KST2 121128Z 01014KT M06/M12 A3067 RMK A01 T10641122  RH  064%=      5-min Rain = 0
KST2 121129Z 01014KT M07/M12 A3067 RMK A01 T10651123  RH  063%=      5-min Rain = 0
KST2 121130Z 01012KT M07/M12 A3067 RMK A01 T10651124  RH  063%=      5-min Rain = 0
KST2 121131Z 01012KT M07/M12 A3067 RMK A01 T10651123  RH  063%=      5-min Rain = 0
KST2 121132Z 00013KT M07/M12 A3067 RMK A01 T10651123  RH  064%=      5-min Rain = 0
KST2 121133Z 36014KT M07/M12 A3067 RMK A01 T10651122  RH  064%=      5-min Rain = 0
KST2 121134Z 00013KT M07/M12 A3067 RMK A01 T10651122  RH  064%=      5-min Rain = 0
KST2 121135Z 01012KT M07/M12 A3067 RMK A01 T10651122  RH  064%=      5-min Rain = 0
KST2 121136Z 01014KT M07/M12 A3067 RMK A01 T10651123  RH  063%=      5-min Rain = 0
KST2 121137Z 01014KT M07/M12 A3067 RMK A01 T10651124  RH  063%=      5-min Rain = 0
KST2 121138Z 00015KT M07/M12 A3067 RMK A01 T10651123  RH  063%=      5-min Rain = 0
KST2 121139Z 01015KT M07/M12 A3067 RMK A01 T10651124  RH  063%=      5-min Rain = 0
KST2 121140Z 01014KT M07/M12 A3067 RMK A01 T10651124  RH  063%=      5-min Rain = 0
KST2 121141Z 01013KT M07/M12 A3067 RMK A01 T10651124  RH  063%=      5-min Rain = 0
KST2 121142Z 01011KT M07/M12 A3067 RMK A01 T10651123  RH  063%=      5-min Rain = 0
KST2 121143Z 01013KT M07/M12 A3067 RMK A01 T10651123  RH  064%=      5-min Rain = 0
KST2 121144Z 01013KT M07/M12 A3067 RMK A01 T10661123  RH  064%=      5-min Rain = 0
KST2 121145Z 01014KT M07/M12 A3067 RMK A01 T10661124  RH  063%=      5-min Rain = 0
KST2 121146Z 01013KT M07/M12 A3067 RMK A01 T10661124  RH  063%=      5-min Rain = 0
KST2 121147Z 00014KT M07/M12 A3067 RMK A01 T10661124  RH  063%=      5-min Rain = 0
KST2 121148Z 01012KT M07/M13 A3067 RMK A01 T10661125  RH  063%=      5-min Rain = 0
KST2 121149Z 01011KT M07/M12 A3067 RMK A01 T10661124  RH  064%=      5-min Rain = 0
KST2 121150Z 00013KT M07/M12 A3067 RMK A01 T10661123  RH  064%=      5-min Rain = 0
KST2 121151Z 00013KT M07/M12 A3067 RMK A01 T10661123  RH  064%=      5-min Rain = 0
KST2 121152Z 00015KT M07/M12 A3067 RMK A01 T10661124  RH  064%=      5-min Rain = 0
KST2 121153Z 00016KT M07/M13 A3067 RMK A01 T10671125  RH  063%=      5-min Rain = 0
KST2 121154Z 00015KT M07/M13 A3067 RMK A01 T10671126  RH  063%=      5-min Rain = 0
KST2 121155Z 01013KT M07/M13 A3067 RMK A01 T10671126  RH  063%=      5-min Rain = 0
KST2 121156Z 00013KT M07/M13 A3066 RMK A01 T10671125  RH  063%=      5-min Rain = 0
KST2 121157Z 00013KT M07/M13 A3066 RMK A01 T10671125  RH  063%=      5-min Rain = 0
KST2 121158Z 01014KT M07/M13 A3066 RMK A01 T10671125  RH  063%=      5-min Rain = 0
KST2 121159Z 01012KT M07/M13 A3066 RMK A01 T10671126  RH  063%=      5-min Rain = 0
KST2 121200Z 00012KT M07/M12 A3067 RMK A01 T10671124  RH  064%=      5-min Rain = 0
KST2 121201Z 01014KT M07/M12 A3066 RMK A01 T10671124  RH  064%=      5-min Rain = 0
KST2 121202Z 00014KT M07/M12 A3066 RMK A01 T10671124  RH  064%=      5-min Rain = 0
KST2 121203Z 00016KT M07/M13 A3066 RMK A01 T10681126  RH  063%=      5-min Rain = 0
KST2 121204Z 00017KT M07/M13 A3066 RMK A01 T10671126  RH  063%=      5-min Rain = 0
KST2 121205Z 00016G21KT M07/M13 A3066 RMK A01 T10681127  RH  063%=      5-min Rain = 0
KST2 121206Z 01016KT M07/M13 A3066 RMK A01 T10681127  RH  063%=      5-min Rain = 0
KST2 121207Z 01013KT M07/M13 A3066 RMK A01 T10681127  RH  063%=      5-min Rain = 0
KST2 121208Z 00011KT M07/M13 A3067 RMK A01 T10681127  RH  063%=      5-min Rain = 0
KST2 121209Z 01012KT M07/M13 A3067 RMK A01 T10681127  RH  063%=      5-min Rain = 0
KST2 121210Z 01012KT M07/M13 A3067 RMK A01 T10681127  RH  063%=      5-min Rain = 0
KST2 121211Z 01011KT M07/M13 A3067 RMK A01 T10681126  RH  063%=      5-min Rain = 0
KST2 121212Z 01010KT M07/M13 A3067 RMK A01 T10691127  RH  063%=      5-min Rain = 0
KST2 121213Z 01011KT M07/M13 A3067 RMK A01 T10691126  RH  064%=      5-min Rain = 0
KST2 121214Z 01010KT M07/M13 A3067 RMK A01 T10691126  RH  064%=      5-min Rain = 0
KST2 121215Z 01010KT M07/M13 A3067 RMK A01 T10691126  RH  064%=      5-min Rain = 0
KST2 121216Z 01008KT M07/M13 A3067 RMK A01 T10691126  RH  064%=      5-min Rain = 0
KST2 121217Z 01009KT M07/M13 A3067 RMK A01 T10691126  RH  064%=      5-min Rain = 0
KST2 121218Z 01012KT M07/M13 A3067 RMK A01 T10691125  RH  065%=      5-min Rain = 0
KST2 121219Z 01011KT M07/M13 A3068 RMK A01 T10701126  RH  064%=      5-min Rain = 0
KST2 121220Z 01010KT M07/M13 A3068 RMK A01 T10701126  RH  064%=      5-min Rain = 0
KST2 121221Z 01011KT M07/M13 A3068 RMK A01 T10701126  RH  064%=      5-min Rain = 0
KST2 121222Z 00010KT M07/M13 A3067 RMK A01 T10691127  RH  063%=      5-min Rain = 0
KST2 121223Z 01008KT M07/M13 A3068 RMK A01 T10691127  RH  063%=      5-min Rain = 0
KST2 121224Z 01010KT M07/M13 A3068 RMK A01 T10701126  RH  064%=      5-min Rain = 0
KST2 121225Z 01011KT M07/M13 A3068 RMK A01 T10691126  RH  064%=      5-min Rain = 0
KST2 121226Z 00009KT M07/M13 A3068 RMK A01 T10691126  RH  064%=      5-min Rain = 0
KST2 121227Z 01008KT M07/M13 A3068 RMK A01 T10701125  RH  065%=      5-min Rain = 0
KST2 121228Z 01011KT M07/M13 A3068 RMK A01 T10701125  RH  065%=      5-min Rain = 0
KST2 121229Z 01010KT M07/M13 A3068 RMK A01 T10701125  RH  065%=      5-min Rain = 0
KST2 121230Z 00010KT M07/M13 A3068 RMK A01 T10701125  RH  065%=      5-min Rain = 0
KST2 121231Z 00010KT M07/M13 A3067 RMK A01 T10701125  RH  065%=      5-min Rain = 0
KST2 121232Z 01010KT M07/M13 A3067 RMK A01 T10701125  RH  065%=      5-min Rain = 0
KST2 121233Z 01010KT M07/M13 A3067 RMK A01 T10701125  RH  065%=      5-min Rain = 0
KST2 121234Z 00008KT M07/M13 A3067 RMK A01 T10701126  RH  065%=      5-min Rain = 0
KST2 121235Z 00008KT M07/M13 A3067 RMK A01 T10711125  RH  065%=      5-min Rain = 0
KST2 121236Z 00011KT M07/M12 A3067 RMK A01 T10711124  RH  066%=      5-min Rain = 0
KST2 121237Z 01009KT M07/M13 A3067 RMK A01 T10711125  RH  065%=      5-min Rain = 0
KST2 121238Z 36008KT M07/M13 A3067 RMK A01 T10711125  RH  065%=      5-min Rain = 0
KST2 121239Z 01010KT M07/M12 A3067 RMK A01 T10711124  RH  066%=      5-min Rain = 0
KST2 121240Z 36009KT M07/M13 A3068 RMK A01 T10711125  RH  065%=      5-min Rain = 0
KST2 121241Z 00009KT M07/M13 A3068 RMK A01 T10711125  RH  066%=      5-min Rain = 0
KST2 121242Z 00010KT M07/M12 A3068 RMK A01 T10711124  RH  066%=      5-min Rain = 0
KST2 121243Z 01010KT M07/M12 A3068 RMK A01 T10711124  RH  066%=      5-min Rain = 0
KST2 121244Z 01010KT M07/M12 A3068 RMK A01 T10711124  RH  066%=      5-min Rain = 0
KST2 121245Z 00009KT M07/M12 A3068 RMK A01 T10711124  RH  066%=      5-min Rain = 0
KST2 121246Z 00012KT M07/M13 A3068 RMK A01 T10711125  RH  066%=      5-min Rain = 0
KST2 121247Z 00010KT M07/M13 A3068 RMK A01 T10721126  RH  065%=      5-min Rain = 0
KST2 121248Z 00011KT M07/M13 A3067 RMK A01 T10721126  RH  065%=      5-min Rain = 0
KST2 121249Z 36012KT M07/M13 A3067 RMK A01 T10721126  RH  065%=      5-min Rain = 0
KST2 121250Z 00011KT M07/M13 A3067 RMK A01 T10721126  RH  065%=      5-min Rain = 0
KST2 121251Z 00012KT M07/M13 A3067 RMK A01 T10721126  RH  065%=      5-min Rain = 0
KST2 121252Z 00013KT M07/M13 A3067 RMK A01 T10721127  RH  065%=      5-min Rain = 0
KST2 121253Z 01011KT M07/M13 A3067 RMK A01 T10721127  RH  065%=      5-min Rain = 0
KST2 121254Z 00011KT M07/M13 A3067 RMK A01 T10721126  RH  065%=      5-min Rain = 0
KST2 121255Z 00010KT M07/M13 A3067 RMK A01 T10721126  RH  065%=      5-min Rain = 0
KST2 121256Z 00012KT M07/M13 A3067 RMK A01 T10721125  RH  066%=      5-min Rain = 0
KST2 121257Z 01012KT M07/M13 A3067 RMK A01 T10721126  RH  066%=      5-min Rain = 0
KST2 121258Z 00010KT M07/M13 A3067 RMK A01 T10721126  RH  066%=      5-min Rain = 0
KST2 121259Z 01010KT M07/M13 A3067 RMK A01 T10721125  RH  066%=      5-min Rain = 0
KST2 121300Z 00008KT M07/M13 A3067 RMK A01 T10721125  RH  066%=      5-min Rain = 0
KST2 121301Z 00010KT M07/M13 A3067 RMK A01 T10731125  RH  066%=      5-min Rain = 0
KST2 121302Z 00009KT M07/M13 A3067 RMK A01 T10731125  RH  066%=      5-min Rain = 0
KST2 121303Z 00009KT M07/M13 A3068 RMK A01 T10731126  RH  066%=      5-min Rain = 0
KST2 121304Z 00009KT M07/M13 A3067 RMK A01 T10731125  RH  066%=      5-min Rain = 0
KST2 121305Z 00008KT M07/M13 A3067 RMK A01 T10731125  RH  066%=      5-min Rain = 0
KST2 121306Z 00008KT M07/M13 A3067 RMK A01 T10731125  RH  067%=      5-min Rain = 0
KST2 121307Z 00009KT M07/M13 A3067 RMK A01 T10731125  RH  067%=      5-min Rain = 0
KST2 121308Z 35009KT M07/M12 A3068 RMK A01 T10731124  RH  067%=      5-min Rain = 0
KST2 121309Z 35008KT M07/M12 A3068 RMK A01 T10731124  RH  067%=      5-min Rain = 0
KST2 121310Z 36009KT M07/M12 A3068 RMK A01 T10731123  RH  068%=      5-min Rain = 0
KST2 121311Z 35009KT M07/M12 A3068 RMK A01 T10721121  RH  068%=      5-min Rain = 0
KST2 121312Z 35008KT M07/M12 A3068 RMK A01 T10711121  RH  068%=      5-min Rain = 0
KST2 121313Z 35010KT M07/M12 A3068 RMK A01 T10711121  RH  067%=      5-min Rain = 0
KST2 121314Z 36009KT M07/M12 A3068 RMK A01 T10711123  RH  067%=      5-min Rain = 0
KST2 121315Z 36009KT M07/M12 A3068 RMK A01 T10711122  RH  067%=      5-min Rain = 0
KST2 121316Z 00009KT M07/M12 A3068 RMK A01 T10711122  RH  067%=      5-min Rain = 0
KST2 121317Z 35009KT M07/M12 A3068 RMK A01 T10711122  RH  067%=      5-min Rain = 0
KST2 121318Z 00008KT M07/M12 A3068 RMK A01 T10711121  RH  068%=      5-min Rain = 0
KST2 121319Z 36009KT M07/M12 A3068 RMK A01 T10711121  RH  067%=      5-min Rain = 0
KST2 121320Z 35008KT M07/M12 A3068 RMK A01 T10711122  RH  067%=      5-min Rain = 0
KST2 121321Z 36009KT M07/M12 A3068 RMK A01 T10721122  RH  067%=      5-min Rain = 0
KST2 121322Z 00010KT M07/M12 A3068 RMK A01 T10721123  RH  067%=      5-min Rain = 0
KST2 121323Z 00008KT M07/M12 A3068 RMK A01 T10721123  RH  067%=      5-min Rain = 0
KST2 121324Z 36008KT M07/M12 A3068 RMK A01 T10721122  RH  067%=      5-min Rain = 0
KST2 121325Z 00008KT M07/M12 A3068 RMK A01 T10721121  RH  068%=      5-min Rain = 0
KST2 121326Z 00011KT M07/M12 A3068 RMK A01 T10721121  RH  068%=      5-min Rain = 0
KST2 121327Z 01010KT M07/M12 A3068 RMK A01 T10721122  RH  067%=      5-min Rain = 0
KST2 121328Z 01010KT M07/M12 A3068 RMK A01 T10721123  RH  067%=      5-min Rain = 0
KST2 121329Z 00010KT M07/M12 A3068 RMK A01 T10721124  RH  067%=      5-min Rain = 0
KST2 121330Z 01009KT M07/M13 A3068 RMK A01 T10731125  RH  066%=      5-min Rain = 0
KST2 121331Z 35010KT M07/M12 A3068 RMK A01 T10731124  RH  067%=      5-min Rain = 0
KST2 121332Z 00011KT M07/M12 A3068 RMK A01 T10731124  RH  066%=      5-min Rain = 0
KST2 121333Z 01009KT M07/M13 A3068 RMK A01 T10731125  RH  066%=      5-min Rain = 0
KST2 121334Z 00009KT M07/M13 A3068 RMK A01 T10731125  RH  066%=      5-min Rain = 0
KST2 121335Z 00010KT M07/M12 A3068 RMK A01 T10731124  RH  067%=      5-min Rain = 0
KST2 121336Z 00010KT M07/M12 A3068 RMK A01 T10731124  RH  067%=      5-min Rain = 0
KST2 121337Z 01011KT M07/M13 A3068 RMK A01 T10731125  RH  066%=      5-min Rain = 0
KST2 121338Z 00009KT M07/M13 A3068 RMK A01 T10731125  RH  066%=      5-min Rain = 0
KST2 121339Z 36009KT M07/M13 A3068 RMK A01 T10731125  RH  066%=      5-min Rain = 0
KST2 121340Z 36008KT M07/M12 A3068 RMK A01 T10721124  RH  066%=      5-min Rain = 0
KST2 121341Z 00008KT M07/M12 A3068 RMK A01 T10721124  RH  067%=      5-min Rain = 0
KST2 121342Z 00009KT M07/M12 A3068 RMK A01 T10721124  RH  066%=      5-min Rain = 0
KST2 121343Z 36008KT M07/M13 A3068 RMK A01 T10721125  RH  066%=      5-min Rain = 0
KST2 121344Z 36007KT M07/M12 A3068 RMK A01 T10721124  RH  066%=      5-min Rain = 0
KST2 121345Z 00007KT M07/M12 A3068 RMK A01 T10721124  RH  066%=      5-min Rain = 0
KST2 121346Z 00008KT M07/M12 A3068 RMK A01 T10721124  RH  066%=      5-min Rain = 0
KST2 121347Z 00008KT M07/M12 A3068 RMK A01 T10721124  RH  066%=      5-min Rain = 0
KST2 121348Z 00008KT M07/M12 A3068 RMK A01 T10721124  RH  066%=      5-min Rain = 0
KST2 121349Z 00008KT M07/M13 A3068 RMK A01 T10721125  RH  066%=      5-min Rain = 0
KST2 121350Z 00006KT M07/M12 A3068 RMK A01 T10711124  RH  066%=      5-min Rain = 0
KST2 121351Z 01008KT M07/M12 A3068 RMK A01 T10711122  RH  067%=      5-min Rain = 0
KST2 121352Z 01006KT M07/M12 A3068 RMK A01 T10701122  RH  067%=      5-min Rain = 0
KST2 121353Z 01007KT M07/M12 A3068 RMK A01 T10701122  RH  067%=      5-min Rain = 0
KST2 121354Z 00006KT M07/M12 A3068 RMK A01 T10701122  RH  067%=      5-min Rain = 0
KST2 121355Z 01008KT M07/M12 A3068 RMK A01 T10701121  RH  067%=      5-min Rain = 0
KST2 121356Z 01008KT M07/M12 A3068 RMK A01 T10701121  RH  067%=      5-min Rain = 0
KST2 121357Z 36007KT M07/M12 A3068 RMK A01 T10701123  RH  066%=      5-min Rain = 0
KST2 121358Z 35009KT M07/M12 A3068 RMK A01 T10691122  RH  066%=      5-min Rain = 0
KST2 121359Z 35010KT M07/M12 A3068 RMK A01 T10691123  RH  066%=      5-min Rain = 0
KST2 121400Z 35010KT M07/M12 A3068 RMK A01 T10691123  RH  065%=      5-min Rain = 0
KST2 121401Z 00007KT M07/M12 A3068 RMK A01 T10691123  RH  065%=      5-min Rain = 0
KST2 121402Z 35010KT M07/M12 A3068 RMK A01 T10691123  RH  065%=      5-min Rain = 0
KST2 121403Z 36010KT M07/M12 A3068 RMK A01 T10691124  RH  065%=      5-min Rain = 0
KST2 121404Z 35009KT M07/M12 A3069 RMK A01 T10701124  RH  065%=      5-min Rain = 0
KST2 121405Z 36008KT M07/M12 A3069 RMK A01 T10691124  RH  065%=      5-min Rain = 0
KST2 121406Z 00006KT M07/M12 A3069 RMK A01 T10691122  RH  066%=      5-min Rain = 0
KST2 121407Z 00007KT M07/M12 A3069 RMK A01 T10681122  RH  066%=      5-min Rain = 0
KST2 121408Z 00007KT M07/M12 A3069 RMK A01 T10681121  RH  066%=      5-min Rain = 0
KST2 121409Z 01008KT M07/M12 A3069 RMK A01 T10671122  RH  065%=      5-min Rain = 0
KST2 121410Z 36007KT M07/M12 A3069 RMK A01 T10681123  RH  065%=      5-min Rain = 0
KST2 121411Z 01008KT M07/M12 A3069 RMK A01 T10681123  RH  065%=      5-min Rain = 0
KST2 121412Z 01008KT M07/M12 A3069 RMK A01 T10681123  RH  065%=      5-min Rain = 0
KST2 121413Z 01009KT M07/M12 A3069 RMK A01 T10691124  RH  064%=      5-min Rain = 0
KST2 121414Z 01009KT M07/M13 A3069 RMK A01 T10691125  RH  065%=      5-min Rain = 0
KST2 121415Z 01009KT M07/M13 A3068 RMK A01 T10691125  RH  064%=      5-min Rain = 0
KST2 121416Z 01010KT M07/M12 A3068 RMK A01 T10691124  RH  064%=      5-min Rain = 0
KST2 121417Z 01009KT M07/M12 A3068 RMK A01 T10681124  RH  064%=      5-min Rain = 0
KST2 121418Z 00010KT M07/M13 A3069 RMK A01 T10681125  RH  064%=      5-min Rain = 0
KST2 121419Z 00010KT M07/M13 A3069 RMK A01 T10681126  RH  064%=      5-min Rain = 0
KST2 121420Z 36009KT M07/M13 A3069 RMK A01 T10681127  RH  063%=      5-min Rain = 0
KST2 121421Z 36010KT M07/M13 A3069 RMK A01 T10681126  RH  063%=      5-min Rain = 0
KST2 121422Z 00010KT M07/M13 A3069 RMK A01 T10681126  RH  064%=      5-min Rain = 0
KST2 121423Z 01007KT M07/M13 A3069 RMK A01 T10691126  RH  063%=      5-min Rain = 0
KST2 121424Z 00008KT M07/M13 A3069 RMK A01 T10681125  RH  064%=      5-min Rain = 0
KST2 121425Z 00008KT M07/M13 A3069 RMK A01 T10681125  RH  064%=      5-min Rain = 0
KST2 121426Z 00009KT M07/M13 A3069 RMK A01 T10681126  RH  063%=      5-min Rain = 0
KST2 121427Z 01007KT M07/M13 A3069 RMK A01 T10681126  RH  063%=      5-min Rain = 0
KST2 121428Z 01008KT M07/M13 A3069 RMK A01 T10681125  RH  064%=      5-min Rain = 0
KST2 121429Z 01008KT M07/M13 A3069 RMK A01 T10681126  RH  063%=      5-min Rain = 0
KST2 121430Z 01008KT M07/M13 A3069 RMK A01 T10681126  RH  063%=      5-min Rain = 0
KST2 121431Z 01008KT M07/M13 A3069 RMK A01 T10671125  RH  064%=      5-min Rain = 0
KST2 121432Z 00008KT M07/M13 A3069 RMK A01 T10661125  RH  063%=      5-min Rain = 0
KST2 121433Z 35009KT M07/M13 A3069 RMK A01 T10661125  RH  063%=      5-min Rain = 0
KST2 121434Z 00009KT M07/M13 A3069 RMK A01 T10661126  RH  062%=      5-min Rain = 0
KST2 121435Z 36008KT M07/M13 A3069 RMK A01 T10671127  RH  062%=      5-min Rain = 0
KST2 121436Z 36009KT M07/M13 A3069 RMK A01 T10671126  RH  063%=      5-min Rain = 0
KST2 121437Z 36010KT M07/M13 A3069 RMK A01 T10661126  RH  063%=      5-min Rain = 0
KST2 121438Z 01008KT M07/M13 A3069 RMK A01 T10671127  RH  062%=      5-min Rain = 0
KST2 121439Z 36007KT M07/M13 A3069 RMK A01 T10671127  RH  062%=      5-min Rain = 0
KST2 121440Z 35009KT M07/M13 A3069 RMK A01 T10661125  RH  063%=      5-min Rain = 0
KST2 121441Z 36008KT M07/M13 A3069 RMK A01 T10661125  RH  063%=      5-min Rain = 0
KST2 121442Z 35010KT M07/M12 A3069 RMK A01 T10651123  RH  063%=      5-min Rain = 0
KST2 121443Z 35009KT M06/M12 A3069 RMK A01 T10641124  RH  062%=      5-min Rain = 0
KST2 121444Z 35009KT M06/M13 A3069 RMK A01 T10641125  RH  062%=      5-min Rain = 0
KST2 121445Z 00008KT M06/M13 A3069 RMK A01 T10641125  RH  062%=      5-min Rain = 0
KST2 121446Z 36009KT M06/M13 A3069 RMK A01 T10641126  RH  062%=      5-min Rain = 0
KST2 121447Z 36008KT M06/M13 A3069 RMK A01 T10641127  RH  061%=      5-min Rain = 0
KST2 121448Z 35008KT M06/M13 A3069 RMK A01 T10641126  RH  061%=      5-min Rain = 0
KST2 121449Z 35008KT M06/M13 A307 RMK A01 T10641125  RH  062%=      5-min Rain = 0
KST2 121450Z 35009KT M06/M13 A307 RMK A01 T10631125  RH  061%=      5-min Rain = 0
KST2 121451Z 36007KT M06/M13 A307 RMK A01 T10621126  RH  061%=      5-min Rain = 0
KST2 121452Z 01008KT M06/M13 A307 RMK A01 T10621125  RH  061%=      5-min Rain = 0
KST2 121453Z 01008KT M06/M13 A307 RMK A01 T10621126  RH  060%=      5-min Rain = 0
KST2 121454Z 35008KT M06/M13 A307 RMK A01 T10621126  RH  060%=      5-min Rain = 0
KST2 121455Z 35007KT M06/M13 A307 RMK A01 T10621127  RH  060%=      5-min Rain = 0
KST2 121456Z 36006KT M06/M13 A307 RMK A01 T10611126  RH  060%=      5-min Rain = 0
KST2 121457Z 00006KT M06/M13 A307 RMK A01 T10611127  RH  060%=      5-min Rain = 0
KST2 121458Z 01005KT M06/M13 A307 RMK A01 T10601126  RH  060%=      5-min Rain = 0
KST2 121459Z 33006KT M06/M12 A307 RMK A01 T10601124  RH  060%=      5-min Rain = 0
KST2 121500Z 35007KT M06/M12 A307 RMK A01 T10591123  RH  060%=      5-min Rain = 0
KST2 121501Z 00007KT M06/M13 A307 RMK A01 T10581125  RH  059%=      5-min Rain = 0
KST2 121502Z 00005KT M06/M13 A307 RMK A01 T10601128  RH  059%=      5-min Rain = 0
KST2 121503Z 35008KT M06/M13 A3069 RMK A01 T10601128  RH  058%=      5-min Rain = 0
KST2 121504Z 35007KT M06/M13 A3069 RMK A01 T10601128  RH  059%=      5-min Rain = 0
KST2 121505Z 36008KT M06/M13 A3069 RMK A01 T10591126  RH  059%=      5-min Rain = 0
KST2 121506Z 35007KT M06/M13 A3069 RMK A01 T10591126  RH  059%=      5-min Rain = 0
KST2 121507Z 35007KT M06/M13 A3069 RMK A01 T10591128  RH  058%=      5-min Rain = 0
KST2 121508Z 35008KT M06/M13 A3069 RMK A01 T10601128  RH  058%=      5-min Rain = 0
KST2 121509Z 36007KT M06/M13 A3069 RMK A01 T10611129  RH  058%=      5-min Rain = 0
KST2 121510Z 35008KT M06/M13 A3069 RMK A01 T10601128  RH  059%=      5-min Rain = 0
KST2 121511Z 35008KT M06/M13 A3069 RMK A01 T10601128  RH  059%=      5-min Rain = 0
KST2 121512Z 35008KT M06/M13 A3069 RMK A01 T10601128  RH  058%=      5-min Rain = 0
KST2 121513Z 36008KT M06/M13 A3069 RMK A01 T10611131  RH  058%=      5-min Rain = 0
KST2 121514Z 35005KT M06/M13 A3069 RMK A01 T10621131  RH  058%=      5-min Rain = 0
KST2 121515Z 36004KT M06/M13 A3069 RMK A01 T10631130  RH  059%=      5-min Rain = 0
KST2 121516Z 35005KT M06/M13 A3069 RMK A01 T10621128  RH  059%=      5-min Rain = 0
KST2 121517Z 00008KT M06/M13 A3069 RMK A01 T10601126  RH  060%=      5-min Rain = 0
KST2 121518Z 36007KT M06/M13 A3069 RMK A01 T10601128  RH  059%=      5-min Rain = 0
KST2 121519Z 00008KT M06/M13 A3069 RMK A01 T10601129  RH  058%=      5-min Rain = 0
KST2 121520Z 02007KT M06/M13 A3069 RMK A01 T10591129  RH  058%=      5-min Rain = 0
KST2 121521Z 01006KT M06/M13 A3069 RMK A01 T10591129  RH  058%=      5-min Rain = 0
KST2 121522Z 35007KT M06/M13 A3069 RMK A01 T10591128  RH  058%=      5-min Rain = 0
KST2 121523Z 36010KT M06/M13 A3069 RMK A01 T10601129  RH  058%=      5-min Rain = 0
KST2 121524Z 00010KT M06/M13 A3068 RMK A01 T10601129  RH  058%=      5-min Rain = 0
KST2 121525Z 00009KT M06/M13 A3068 RMK A01 T10601129  RH  058%=      5-min Rain = 0
KST2 121526Z 00007KT M06/M13 A3068 RMK A01 T10601131  RH  057%=      5-min Rain = 0
KST2 121527Z 00007KT M06/M13 A3069 RMK A01 T10611132  RH  057%=      5-min Rain = 0
KST2 121528Z 01005KT M06/M13 A3069 RMK A01 T10601131  RH  058%=      5-min Rain = 0
KST2 121529Z 01006KT M06/M13 A3069 RMK A01 T10591127  RH  058%=      5-min Rain = 0
KST2 121530Z 36006KT M06/M13 A3069 RMK A01 T10581127  RH  058%=      5-min Rain = 0
KST2 121531Z 00006KT M06/M13 A3069 RMK A01 T10571127  RH  058%=      5-min Rain = 0
KST2 121532Z 01007KT M06/M13 A3069 RMK A01 T10551126  RH  057%=      5-min Rain = 0
KST2 121533Z 01009KT M05/M13 A3069 RMK A01 T10541127  RH  057%=      5-min Rain = 0
KST2 121534Z 35007KT M06/M13 A3069 RMK A01 T10551128  RH  056%=      5-min Rain = 0
KST2 121535Z 36005KT M06/M13 A3069 RMK A01 T10561129  RH  056%=      5-min Rain = 0
KST2 121536Z 35006KT M06/M13 A3069 RMK A01 T10561128  RH  057%=      5-min Rain = 0
KST2 121537Z 35008KT M06/M13 A3068 RMK A01 T10551127  RH  057%=      5-min Rain = 0
KST2 121538Z 00006KT M05/M13 A3068 RMK A01 T10541131  RH  055%=      5-min Rain = 0
KST2 121539Z 02008KT M06/M13 A3068 RMK A01 T10551132  RH  055%=      5-min Rain = 0
KST2 121540Z 03009KT M05/M13 A3068 RMK A01 T10541131  RH  055%=      5-min Rain = 0
KST2 121541Z 03008KT M05/M13 A3068 RMK A01 T10541131  RH  055%=      5-min Rain = 0
KST2 121542Z 03007KT M05/M13 A3068 RMK A01 T10531129  RH  055%=      5-min Rain = 0
KST2 121543Z 03005KT M05/M13 A3068 RMK A01 T10521129  RH  055%=      5-min Rain = 0
KST2 121544Z 02004KT M05/M13 A3068 RMK A01 T10531131  RH  054%=      5-min Rain = 0
KST2 121545Z 04006KT M05/M13 A3068 RMK A01 T10531131  RH  054%=      5-min Rain = 0
KST2 121546Z 02005KT M05/M13 A3068 RMK A01 T10531130  RH  055%=      5-min Rain = 0
KST2 121547Z 35007KT M05/M13 A3068 RMK A01 T10521127  RH  056%=      5-min Rain = 0
KST2 121548Z 36004KT M05/M13 A3069 RMK A01 T10511125  RH  056%=      5-min Rain = 0
KST2 121549Z 02004KT M05/M13 A3069 RMK A01 T10501127  RH  055%=      5-min Rain = 0
KST2 121550Z 03005KT M05/M13 A3069 RMK A01 T10511127  RH  055%=      5-min Rain = 0
KST2 121551Z 02004KT M05/M13 A3068 RMK A01 T10501126  RH  055%=      5-min Rain = 0
KST2 121552Z 01007KT M05/M12 A3068 RMK A01 T10481123  RH  056%=      5-min Rain = 0
KST2 121553Z 35008KT M05/M13 A3068 RMK A01 T10481125  RH  055%=      5-min Rain = 0
KST2 121554Z 35006KT M05/M13 A3068 RMK A01 T10491127  RH  054%=      5-min Rain = 0
KST2 121555Z 33004KT M05/M13 A3068 RMK A01 T10501128  RH  054%=      5-min Rain = 0
KST2 121556Z 33006KT M05/M13 A3068 RMK A01 T10501128  RH  054%=      5-min Rain = 0
KST2 121557Z 34006KT M05/M13 A3068 RMK A01 T10501127  RH  055%=      5-min Rain = 0
KST2 121558Z 35005KT M05/M13 A3068 RMK A01 T10501129  RH  054%=      5-min Rain = 0
KST2 121559Z 36007KT M05/M13 A3068 RMK A01 T10501128  RH  055%=      5-min Rain = 0
KST2 121600Z 35005KT M05/M13 A3068 RMK A01 T10491125  RH  055%=      5-min Rain = 0
KST2 121601Z 35004KT M05/M12 A3068 RMK A01 T10481124  RH  055%=      5-min Rain = 0
KST2 121602Z 36008KT M05/M13 A3068 RMK A01 T10471125  RH  055%=      5-min Rain = 0
KST2 121603Z 00009KT M05/M12 A3068 RMK A01 T10461122  RH  055%=      5-min Rain = 0
KST2 121604Z 00008KT M05/M13 A3068 RMK A01 T10461126  RH  054%=      5-min Rain = 0
KST2 121605Z 36006KT M05/M13 A3068 RMK A01 T10471128  RH  053%=      5-min Rain = 0
KST2 121606Z 34004KT M05/M13 A3068 RMK A01 T10491131  RH  053%=      5-min Rain = 0
KST2 121607Z 35008KT M05/M13 A3067 RMK A01 T10491129  RH  053%=      5-min Rain = 0
KST2 121608Z 34007KT M05/M13 A3068 RMK A01 T10481127  RH  054%=      5-min Rain = 0
KST2 121609Z 34008KT M05/M13 A3068 RMK A01 T10471126  RH  054%=      5-min Rain = 0
KST2 121610Z 01008KT M05/M12 A3068 RMK A01 T10451122  RH  055%=      5-min Rain = 0
KST2 121611Z 01006KT M04/M12 A3068 RMK A01 T10431122  RH  054%=      5-min Rain = 0
KST2 121612Z 01006KT M04/M13 A3068 RMK A01 T10431125  RH  053%=      5-min Rain = 0
KST2 121613Z 02005KT M04/M13 A3068 RMK A01 T10441128  RH  052%=      5-min Rain = 0
KST2 121614Z 02004KT M05/M13 A3068 RMK A01 T10451129  RH  052%=      5-min Rain = 0
KST2 121615Z 03004KT M05/M13 A3068 RMK A01 T10451128  RH  052%=      5-min Rain = 0
KST2 121616Z 03004KT M04/M13 A3068 RMK A01 T10441128  RH  052%=      5-min Rain = 0
KST2 121617Z 36002KT M05/M13 A3068 RMK A01 T10451129  RH  052%=      5-min Rain = 0
KST2 121618Z 00005KT M04/M13 A3068 RMK A01 T10441127  RH  053%=      5-min Rain = 0
KST2 121619Z 02002KT M04/M13 A3068 RMK A01 T10441126  RH  053%=      5-min Rain = 0
KST2 121620Z 02004KT M04/M13 A3068 RMK A01 T10431126  RH  052%=      5-min Rain = 0
KST2 121621Z 33005KT M04/M13 A3068 RMK A01 T10431127  RH  052%=      5-min Rain = 0
KST2 121622Z 32006KT M04/M13 A3068 RMK A01 T10441128  RH  052%=      5-min Rain = 0
KST2 121623Z 02007KT M04/M12 A3068 RMK A01 T10441124  RH  054%=      5-min Rain = 0
KST2 121624Z 02005KT M04/M12 A3068 RMK A01 T10421120  RH  054%=      5-min Rain = 0
KST2 121625Z 03006KT M04/M12 A3068 RMK A01 T10401121  RH  053%=      5-min Rain = 0
KST2 121626Z 02006KT M04/M12 A3068 RMK A01 T10401123  RH  052%=      5-min Rain = 0
KST2 121627Z 01006KT M04/M13 A3067 RMK A01 T10411128  RH  051%=      5-min Rain = 0
KST2 121628Z 00004KT M04/M13 A3067 RMK A01 T10411125  RH  052%=      5-min Rain = 0
KST2 121629Z 35006KT M04/M12 A3067 RMK A01 T10401123  RH  052%=      5-min Rain = 0
KST2 121630Z 34006KT M04/M12 A3067 RMK A01 T10391124  RH  052%=      5-min Rain = 0
KST2 121631Z 34005KT M04/M12 A3067 RMK A01 T10391122  RH  053%=      5-min Rain = 0
KST2 121632Z 34006KT M04/M12 A3067 RMK A01 T10391122  RH  053%=      5-min Rain = 0
KST2 121633Z 36006KT M04/M12 A3067 RMK A01 T10401122  RH  053%=      5-min Rain = 0
KST2 121634Z 35006KT M04/M12 A3066 RMK A01 T10411124  RH  052%=      5-min Rain = 0
KST2 121635Z 36006KT M04/M13 A3066 RMK A01 T10411126  RH  052%=      5-min Rain = 0
KST2 121636Z 35008KT M04/M12 A3066 RMK A01 T10411124  RH  052%=      5-min Rain = 0
KST2 121637Z 35009KT M04/M12 A3066 RMK A01 T10391121  RH  053%=      5-min Rain = 0
KST2 121638Z 35008KT M04/M12 A3066 RMK A01 T10381120  RH  053%=      5-min Rain = 0
KST2 121639Z 00006KT M04/M12 A3066 RMK A01 T10381123  RH  052%=      5-min Rain = 0
KST2 121640Z 36004KT M04/M12 A3066 RMK A01 T10371121  RH  052%=      5-min Rain = 0
KST2 121641Z 01007KT M04/M12 A3066 RMK A01 T10351116  RH  053%=      5-min Rain = 0
KST2 121642Z 02008KT M03/M12 A3066 RMK A01 T10341119  RH  052%=      5-min Rain = 0
KST2 121643Z 02007KT M04/M12 A3066 RMK A01 T10361124  RH  051%=      5-min Rain = 0
KST2 121644Z 02005KT M04/M13 A3066 RMK A01 T10371126  RH  050%=      5-min Rain = 0
KST2 121645Z 01005KT M04/M13 A3066 RMK A01 T10381127  RH  050%=      5-min Rain = 0
KST2 121646Z 00006KT M04/M12 A3066 RMK A01 T10371124  RH  051%=      5-min Rain = 0
KST2 121647Z 02007KT M03/M12 A3066 RMK A01 T10341118  RH  052%=      5-min Rain = 0
KST2 121648Z 02005KT M03/M12 A3066 RMK A01 T10331120  RH  051%=      5-min Rain = 0
KST2 121649Z 03007KT M03/M12 A3066 RMK A01 T10341122  RH  051%=      5-min Rain = 0
KST2 121650Z 02007KT M03/M12 A3066 RMK A01 T10341122  RH  051%=      5-min Rain = 0
KST2 121651Z 01005KT M04/M12 A3066 RMK A01 T10351122  RH  051%=      5-min Rain = 0
KST2 121652Z 35006KT M04/M12 A3066 RMK A01 T10351121  RH  051%=      5-min Rain = 0
KST2 121653Z 00005KT M03/M12 A3066 RMK A01 T10331119  RH  051%=      5-min Rain = 0
KST2 121654Z 02008KT M03/M12 A3066 RMK A01 T10321118  RH  052%=      5-min Rain = 0
KST2 121655Z 01007KT M03/M12 A3066 RMK A01 T10311117  RH  051%=      5-min Rain = 0
KST2 121656Z 01005KT M03/M12 A3066 RMK A01 T10321121  RH  050%=      5-min Rain = 0
KST2 121657Z 02005KT M03/M12 A3066 RMK A01 T10331122  RH  050%=      5-min Rain = 0
KST2 121658Z 03005KT M03/M12 A3066 RMK A01 T10331120  RH  051%=      5-min Rain = 0
KST2 121659Z 01006KT M03/M12 A3066 RMK A01 T10321118  RH  051%=      5-min Rain = 0
KST2 121700Z 35008KT M03/M12 A3066 RMK A01 T10311120  RH  050%=      5-min Rain = 0
KST2 121701Z 35008KT M03/M12 A3066 RMK A01 T10311120  RH  050%=      5-min Rain = 0
KST2 121702Z 34007KT M03/M12 A3066 RMK A01 T10311122  RH  049%=      5-min Rain = 0
KST2 121703Z 34007KT M03/M12 A3066 RMK A01 T10311119  RH  051%=      5-min Rain = 0
KST2 121704Z 34007KT M03/M12 A3066 RMK A01 T10301117  RH  051%=      5-min Rain = 0
KST2 121705Z 33008KT M03/M12 A3066 RMK A01 T10301119  RH  050%=      5-min Rain = 0
KST2 121706Z 35009KT M03/M12 A3066 RMK A01 T10311121  RH  050%=      5-min Rain = 0
KST2 121707Z 35007KT M03/M12 A3066 RMK A01 T10311123  RH  049%=      5-min Rain = 0
KST2 121708Z 35005KT M03/M13 A3066 RMK A01 T10321126  RH  048%=      5-min Rain = 0
KST2 121709Z 01006KT M03/M12 A3066 RMK A01 T10321123  RH  049%=      5-min Rain = 0
KST2 121710Z 02006KT M03/M12 A3066 RMK A01 T10301121  RH  049%=      5-min Rain = 0
KST2 121711Z 35005KT M03/M12 A3066 RMK A01 T10301123  RH  049%=      5-min Rain = 0
KST2 121712Z 35007KT M03/M12 A3066 RMK A01 T10301123  RH  049%=      5-min Rain = 0
KST2 121713Z 34007KT M03/M12 A3066 RMK A01 T10301124  RH  048%=      5-min Rain = 0
KST2 121714Z 33005KT M03/M13 A3066 RMK A01 T10301126  RH  048%=      5-min Rain = 0
KST2 121715Z 35005KT M03/M13 A3066 RMK A01 T10311127  RH  047%=      5-min Rain = 0
KST2 121716Z 34005KT M03/M12 A3065 RMK A01 T10301123  RH  049%=      5-min Rain = 0
KST2 121717Z 01007KT M03/M12 A3065 RMK A01 T10291123  RH  048%=      5-min Rain = 0
KST2 121718Z 01008KT M03/M12 A3065 RMK A01 T10291123  RH  048%=      5-min Rain = 0
KST2 121719Z 00009KT M03/M12 A3065 RMK A01 T10271119  RH  049%=      5-min Rain = 0
KST2 121720Z 35008KT M03/M12 A3065 RMK A01 T10251118  RH  049%=      5-min Rain = 0
KST2 121721Z 35007KT M03/M12 A3064 RMK A01 T10251120  RH  048%=      5-min Rain = 0
KST2 121722Z 35006KT M03/M12 A3065 RMK A01 T10261121  RH  048%=      5-min Rain = 0
KST2 121723Z 36006KT M03/M12 A3065 RMK A01 T10261120  RH  048%=      5-min Rain = 0
KST2 121724Z 36005KT M03/M12 A3064 RMK A01 T10251120  RH  048%=      5-min Rain = 0
KST2 121725Z 34006KT M02/M12 A3064 RMK A01 T10241118  RH  049%=      5-min Rain = 0
KST2 121726Z 36008KT M02/M11 A3064 RMK A01 T10221113  RH  050%=      5-min Rain = 0
KST2 121727Z 35007KT M02/M12 A3064 RMK A01 T10221118  RH  048%=      5-min Rain = 0
KST2 121728Z 34007KT M02/M12 A3064 RMK A01 T10241122  RH  047%=      5-min Rain = 0
KST2 121729Z 35006KT M03/M12 A3064 RMK A01 T10251121  RH  048%=      5-min Rain = 0
KST2 121730Z 02007KT M03/M12 A3064 RMK A01 T10261123  RH  047%=      5-min Rain = 0
KST2 121731Z 03006KT M03/M12 A3064 RMK A01 T10271124  RH  047%=      5-min Rain = 0
KST2 121732Z 02006KT M03/M12 A3064 RMK A01 T10261122  RH  048%=      5-min Rain = 0
KST2 121733Z 35006KT M03/M12 A3064 RMK A01 T10251119  RH  048%=      5-min Rain = 0
KST2 121734Z 35007KT M02/M11 A3064 RMK A01 T10221114  RH  050%=      5-min Rain = 0
KST2 121735Z 35006KT M02/M12 A3064 RMK A01 T10221117  RH  048%=      5-min Rain = 0
KST2 121736Z 35009KT M02/M12 A3063 RMK A01 T10231120  RH  047%=      5-min Rain = 0
KST2 121737Z 35007KT M02/M12 A3063 RMK A01 T10241122  RH  047%=      5-min Rain = 0
KST2 121738Z 01008KT M02/M12 A3063 RMK A01 T10241122  RH  047%=      5-min Rain = 0
KST2 121739Z 02006KT M02/M12 A3063 RMK A01 T10241119  RH  048%=      5-min Rain = 0
KST2 121740Z 00008KT M02/M12 A3063 RMK A01 T10231122  RH  047%=      5-min Rain = 0
KST2 121741Z 36008KT M02/M12 A3063 RMK A01 T10231119  RH  048%=      5-min Rain = 0
KST2 121742Z 36008KT M02/M12 A3063 RMK A01 T10211115  RH  048%=      5-min Rain = 0
KST2 121743Z 01007KT M02/M12 A3063 RMK A01 T10191115  RH  048%=      5-min Rain = 0
KST2 121744Z 02006KT M02/M12 A3063 RMK A01 T10191117  RH  047%=      5-min Rain = 0
KST2 121745Z 36006KT M02/M12 A3063 RMK A01 T10201119  RH  047%=      5-min Rain = 0
KST2 121746Z 34007KT M02/M12 A3063 RMK A01 T10201115  RH  048%=      5-min Rain = 0
KST2 121747Z 35006KT M02/M11 A3063 RMK A01 T10181114  RH  048%=      5-min Rain = 0
KST2 121748Z 34008KT M02/M11 A3062 RMK A01 T10181112  RH  048%=      5-min Rain = 0
KST2 121749Z 35008KT M02/M11 A3062 RMK A01 T10171111  RH  049%=      5-min Rain = 0
KST2 121750Z 35006KT M02/M12 A3062 RMK A01 T10181116  RH  047%=      5-min Rain = 0
KST2 121751Z 36008KT M02/M11 A3062 RMK A01 T10181113  RH  048%=      5-min Rain = 0
KST2 121752Z 35006KT M02/M12 A3062 RMK A01 T10171115  RH  047%=      5-min Rain = 0
KST2 121753Z 35006KT M02/M12 A3062 RMK A01 T10181117  RH  047%=      5-min Rain = 0
KST2 121754Z 35009KT M02/M11 A3062 RMK A01 T10181114  RH  048%=      5-min Rain = 0
KST2 121755Z 35010KT M02/M12 A3062 RMK A01 T10171116  RH  047%=      5-min Rain = 0
KST2 121756Z 34009KT M02/M11 A3062 RMK A01 T10161111  RH  049%=      5-min Rain = 0
KST2 121757Z 34007KT M02/M11 A3061 RMK A01 T10161112  RH  048%=      5-min Rain = 0
KST2 121758Z 35007KT M02/M11 A3061 RMK A01 T10161112  RH  048%=      5-min Rain = 0
KST2 121759Z 02006KT M02/M11 A3061 RMK A01 T10161112  RH  048%=      5-min Rain = 0
KST2 121800Z 02005KT M02/M11 A3061 RMK A01 T10151113  RH  047%=      5-min Rain = 0
KST2 121801Z 01005KT M02/M12 A3061 RMK A01 T10151115  RH  047%=      5-min Rain = 0
KST2 121802Z 35006KT M02/M12 A3061 RMK A01 T10151115  RH  046%=      5-min Rain = 0
KST2 121803Z 35006KT M02/M12 A3061 RMK A01 T10151118  RH  045%=      5-min Rain = 0
KST2 121804Z 01009KT M02/M12 A3061 RMK A01 T10151120  RH  045%=      5-min Rain = 0
KST2 121805Z 36008KT M02/M12 A3061 RMK A01 T10151119  RH  045%=      5-min Rain = 0
KST2 121806Z 35006KT M02/M12 A3061 RMK A01 T10161122  RH  044%=      5-min Rain = 0
KST2 121807Z 34005KT M02/M12 A3061 RMK A01 T10161119  RH  046%=      5-min Rain = 0
KST2 121808Z 33004KT M02/M11 A3061 RMK A01 T10161114  RH  047%=      5-min Rain = 0
KST2 121809Z 35004KT M01/M11 A3061 RMK A01 T10141111  RH  048%=      5-min Rain = 0
KST2 121810Z 00005KT M01/M11 A3061 RMK A01 T10121108  RH  048%=      5-min Rain = 0
KST2 121811Z 35004KT M01/M11 A3061 RMK A01 T10121113  RH  046%=      5-min Rain = 0
KST2 121812Z 02003KT M01/M12 A3061 RMK A01 T10141119  RH  045%=      5-min Rain = 0
KST2 121813Z 33005KT M02/M12 A3061 RMK A01 T10151116  RH  046%=      5-min Rain = 0
KST2 121814Z 01005KT M01/M11 A3061 RMK A01 T10141114  RH  046%=      5-min Rain = 0
KST2 121815Z 02006KT M01/M12 A3061 RMK A01 T10131115  RH  046%=      5-min Rain = 0
KST2 121816Z 02004KT M01/M12 A3061 RMK A01 T10131116  RH  045%=      5-min Rain = 0
KST2 121817Z 33004KT M01/M11 A3061 RMK A01 T10131113  RH  046%=      5-min Rain = 0
KST2 121818Z 32004KT M01/M11 A3061 RMK A01 T10111112  RH  046%=      5-min Rain = 0
KST2 121819Z 35006KT M01/M11 A3061 RMK A01 T10111111  RH  047%=      5-min Rain = 0
KST2 121820Z 00006KT M01/M11 A3061 RMK A01 T10091106  RH  048%=      5-min Rain = 0
KST2 121821Z 00007KT M01/M11 A3061 RMK A01 T10081105  RH  048%=      5-min Rain = 0
KST2 121822Z 01006KT M01/M11 A3061 RMK A01 T10081106  RH  047%=      5-min Rain = 0
KST2 121823Z 36006KT M01/M11 A3061 RMK A01 T10071107  RH  047%=      5-min Rain = 0
KST2 121824Z 34005KT M01/M11 A3061 RMK A01 T10081113  RH  045%=      5-min Rain = 0
KST2 121825Z 32004KT M01/M12 A3061 RMK A01 T10101116  RH  044%=      5-min Rain = 0
KST2 121826Z 32005KT M01/M12 A3061 RMK A01 T10111116  RH  045%=      5-min Rain = 0
KST2 121827Z 34005KT M01/M11 A3061 RMK A01 T10111109  RH  047%=      5-min Rain = 0
KST2 121828Z 33004KT M01/M11 A3061 RMK A01 T10111113  RH  046%=      5-min Rain = 0
KST2 121829Z 31003KT M01/M11 A3061 RMK A01 T10121114  RH  045%=      5-min Rain = 0
KST2 121830Z 31003G8KT M01/M12 A3061 RMK A01 T10121116  RH  045%=      5-min Rain = 0
KST2 121831Z 00003KT M01/M11 A3061 RMK A01 T10111113  RH  046%=      5-min Rain = 0
KST2 121832Z 00004KT M01/M11 A3061 RMK A01 T10091110  RH  046%=      5-min Rain = 0
KST2 121833Z 35004KT M01/M11 A3061 RMK A01 T10071109  RH  046%=      5-min Rain = 0
KST2 121834Z 34004KT M01/M11 A3061 RMK A01 T10061109  RH  046%=      5-min Rain = 0
KST2 121835Z 01004KT M01/M12 A306 RMK A01 T10061115  RH  044%=      5-min Rain = 0
KST2 121836Z 34004KT M01/M12 A306 RMK A01 T10081117  RH  043%=      5-min Rain = 0
KST2 121837Z 32002KT M01/M12 A306 RMK A01 T10081119  RH  043%=      5-min Rain = 0
KST2 121838Z 33004KT M01/M12 A306 RMK A01 T10091122  RH  042%=      5-min Rain = 0
KST2 121839Z 34005KT M01/M12 A306 RMK A01 T10101119  RH  043%=      5-min Rain = 0
KST2 121840Z 33004KT M01/M12 A306 RMK A01 T10101121  RH  043%=      5-min Rain = 0
KST2 121841Z 30003KT M01/M13 A306 RMK A01 T10121125  RH  042%=      5-min Rain = 0
KST2 121842Z 27002KT M01/M13 A3059 RMK A01 T10131127  RH  042%=      5-min Rain = 0
KST2 121843Z 27002KT M01/M13 A3059 RMK A01 T10131125  RH  042%=      5-min Rain = 0
KST2 121844Z 28003KT M01/M12 A3059 RMK A01 T10131122  RH  043%=      5-min Rain = 0
KST2 121845Z 30003KT M01/M12 A3059 RMK A01 T10121120  RH  044%=      5-min Rain = 0
KST2 121846Z 30004KT M01/M12 A3059 RMK A01 T10111120  RH  043%=      5-min Rain = 0
KST2 121847Z 29002KT M01/M13 A3059 RMK A01 T10111125  RH  042%=      5-min Rain = 0
KST2 121848Z 28002KT M01/M13 A3059 RMK A01 T10101129  RH  040%=      5-min Rain = 0
KST2 121849Z 30003KT M01/M13 A3059 RMK A01 T10101129  RH  040%=      5-min Rain = 0
KST2 121850Z 30003KT M01/M13 A3059 RMK A01 T10081126  RH  041%=      5-min Rain = 0
KST2 121851Z 30003KT M01/M13 A3059 RMK A01 T10081125  RH  041%=      5-min Rain = 0
KST2 121852Z 29003KT M01/M13 A3058 RMK A01 T10081126  RH  040%=      5-min Rain = 0
KST2 121853Z 30004KT M01/M13 A3058 RMK A01 T10071125  RH  040%=      5-min Rain = 0
KST2 121854Z 30004KT M01/M13 A3058 RMK A01 T10081130  RH  039%=      5-min Rain = 0
KST2 121855Z 28003KT M01/M13 A3058 RMK A01 T10101134  RH  038%=      5-min Rain = 0
KST2 121856Z 29003KT M01/M13 A3058 RMK A01 T10101127  RH  041%=      5-min Rain = 0
KST2 121857Z 31003KT M01/M12 A3058 RMK A01 T10081122  RH  042%=      5-min Rain = 0
KST2 121858Z 31003KT M01/M13 A3058 RMK A01 T10071130  RH  039%=      5-min Rain = 0
KST2 121859Z 32004KT M01/M13 A3058 RMK A01 T10081129  RH  039%=      5-min Rain = 0
KST2 121900Z 31004KT M01/M13 A3058 RMK A01 T10081128  RH  040%=      5-min Rain = 0
KST2 121901Z 31004KT M01/M13 A3058 RMK A01 T10081130  RH  039%=      5-min Rain = 0
KST2 121902Z 33004KT M01/M13 A3058 RMK A01 T10091130  RH  039%=      5-min Rain = 0
KST2 121903Z 33002KT M01/M13 A3057 RMK A01 T10091131  RH  039%=      5-min Rain = 0
KST2 121904Z 33003KT M01/M13 A3057 RMK A01 T10091133  RH  038%=      5-min Rain = 0
KST2 121905Z 34002KT M01/M14 A3057 RMK A01 T10101135  RH  038%=      5-min Rain = 0
KST2 121906Z 32002KT M01/M13 A3057 RMK A01 T10101134  RH  038%=      5-min Rain = 0
KST2 121907Z 32002KT M01/M13 A3057 RMK A01 T10091129  RH  040%=      5-min Rain = 0
KST2 121908Z 32003KT M01/M13 A3056 RMK A01 T10081130  RH  039%=      5-min Rain = 0
KST2 121909Z 32001KT M01/M13 A3056 RMK A01 T10071133  RH  038%=      5-min Rain = 0
KST2 121910Z 31000KT M01/M13 A3056 RMK A01 T10071131  RH  039%=      5-min Rain = 0
KST2 121911Z 32000KT M01/M13 A3056 RMK A01 T10061131  RH  038%=      5-min Rain = 0
KST2 121912Z 32001KT M01/M13 A3056 RMK A01 T10051129  RH  039%=      5-min Rain = 0
KST2 121913Z 35005KT M00/M12 A3056 RMK A01 T10031123  RH  040%=      5-min Rain = 0
KST2 121914Z 34005KT M00/M13 A3056 RMK A01 T10021127  RH  038%=      5-min Rain = 0
KST2 121915Z 34004KT M00/M14 A3056 RMK A01 T10031138  RH  035%=      5-min Rain = 0
KST2 121916Z 33004KT M00/M14 A3056 RMK A01 T10041140  RH  035%=      5-min Rain = 0
KST2 121917Z 34005KT M00/M14 A3056 RMK A01 T10041141  RH  035%=      5-min Rain = 0
KST2 121918Z 34004KT M00/M14 A3056 RMK A01 T10031136  RH  036%=      5-min Rain = 0
KST2 121919Z 33004KT M00/M14 A3056 RMK A01 T10021141  RH  034%=      5-min Rain = 0
KST2 121920Z 32004KT M00/M14 A3056 RMK A01 T10031139  RH  035%=      5-min Rain = 0
KST2 121921Z 33003KT M00/M14 A3056 RMK A01 T10041137  RH  036%=      5-min Rain = 0
KST2 121922Z 31001KT M00/M14 A3056 RMK A01 T10041136  RH  036%=      5-min Rain = 0
KST2 121923Z 30002KT M00/M14 A3055 RMK A01 T10041138  RH  035%=      5-min Rain = 0
KST2 121924Z 31003KT M00/M14 A3055 RMK A01 T10031138  RH  035%=      5-min Rain = 0
KST2 121925Z 31005KT M00/M13 A3055 RMK A01 T10031133  RH  037%=      5-min Rain = 0
KST2 121926Z 31005KT M00/M13 A3055 RMK A01 T10021131  RH  037%=      5-min Rain = 0
KST2 121927Z 31005KT M00/M13 A3055 RMK A01 T10021132  RH  037%=      5-min Rain = 0
KST2 121928Z 34004KT M00/M13 A3055 RMK A01 T10021129  RH  038%=      5-min Rain = 0
KST2 121929Z 32004KT M00/M13 A3055 RMK A01 T10011132  RH  037%=      5-min Rain = 0
KST2 121930Z 30004KT M00/M13 A3055 RMK A01 T10011131  RH  037%=      5-min Rain = 0
KST2 121931Z 31004KT M00/M13 A3055 RMK A01 T10011129  RH  037%=      5-min Rain = 0
KST2 121932Z 32003KT 00/13 A3055 RMK A01 T00-00-133  RH  036%=      5-min Rain = 0
KST2 121933Z 31001KT M00/M14 A3055 RMK A01 T10011136  RH  035%=      5-min Rain = 0
KST2 121934Z 34003KT M00/M13 A3055 RMK A01 T10011132  RH  037%=      5-min Rain = 0
KST2 121935Z 00004KT 00/13 A3055 RMK A01 T00000-131  RH  037%=      5-min Rain = 0
KST2 121936Z 00002KT 00/M13 A3055 RMK A01 T00011133  RH  036%=      5-min Rain = 0
KST2 121937Z 00003KT 00/M13 A3055 RMK A01 T00011132  RH  036%=      5-min Rain = 0
KST2 121938Z 35004KT 00/M13 A3055 RMK A01 T00011133  RH  036%=      5-min Rain = 0
KST2 121939Z 32003KT 00/M13 A3055 RMK A01 T00021128  RH  037%=      5-min Rain = 0
KST2 121940Z 31002KT 00/M13 A3055 RMK A01 T00011129  RH  037%=      5-min Rain = 0
KST2 121941Z 33004KT 00/M13 A3055 RMK A01 T00011127  RH  038%=      5-min Rain = 0
KST2 121942Z 32002KT 00/M13 A3055 RMK A01 T00011132  RH  036%=      5-min Rain = 0
KST2 121943Z 31001KT 00/M13 A3054 RMK A01 T00011134  RH  035%=      5-min Rain = 0
KST2 121944Z 31002KT 00/M13 A3054 RMK A01 T00031130  RH  036%=      5-min Rain = 0
KST2 121945Z 33004KT 00/M13 A3054 RMK A01 T00041129  RH  036%=      5-min Rain = 0
KST2 121946Z 33003KT 01/M13 A3054 RMK A01 T00051129  RH  036%=      5-min Rain = 0
KST2 121947Z 31002KT 00/M13 A3054 RMK A01 T00041128  RH  036%=      5-min Rain = 0
KST2 121948Z 28004KT 01/M13 A3055 RMK A01 T00051130  RH  036%=      5-min Rain = 0
KST2 121949Z 25002KT 00/M13 A3055 RMK A01 T00041133  RH  035%=      5-min Rain = 0
KST2 121950Z 31002KT 00/M13 A3055 RMK A01 T00031130  RH  036%=      5-min Rain = 0
KST2 121951Z 30003KT 00/M13 A3055 RMK A01 T00031131  RH  036%=      5-min Rain = 0
KST2 121952Z 28002KT 00/M13 A3055 RMK A01 T00031134  RH  035%=      5-min Rain = 0
KST2 121953Z 30001KT 00/M13 A3054 RMK A01 T00031134  RH  035%=      5-min Rain = 0
KST2 121954Z 32001KT 00/M14 A3054 RMK A01 T00021135  RH  035%=      5-min Rain = 0
KST2 121955Z 32001KT 00/M14 A3054 RMK A01 T00021137  RH  034%=      5-min Rain = 0
KST2 121956Z 33001KT 00/M14 A3054 RMK A01 T00021138  RH  034%=      5-min Rain = 0
KST2 121957Z 32002KT 00/M14 A3054 RMK A01 T00021137  RH  035%=      5-min Rain = 0
KST2 121958Z 31000KT 00/M14 A3054 RMK A01 T00021135  RH  035%=      5-min Rain = 0
KST2 121959Z 29002KT 00/M14 A3054 RMK A01 T00021136  RH  035%=      5-min Rain = 0
KST2 122000Z 29002KT 00/M13 A3054 RMK A01 T00031133  RH  035%=      5-min Rain = 0
KST2 122001Z 29002KT 00/M13 A3054 RMK A01 T00031133  RH  035%=      5-min Rain = 0
KST2 122002Z 29002KT 00/M13 A3053 RMK A01 T00041129  RH  036%=      5-min Rain = 0
KST2 122003Z 30001KT 01/M13 A3053 RMK A01 T00051131  RH  035%=      5-min Rain = 0
KST2 122004Z 25002KT 01/M13 A3053 RMK A01 T00061131  RH  035%=      5-min Rain = 0
KST2 122005Z 24002KT 01/M13 A3053 RMK A01 T00061132  RH  035%=      5-min Rain = 0
KST2 122006Z 25002KT 01/M13 A3053 RMK A01 T00061129  RH  036%=      5-min Rain = 0
KST2 122007Z 31003KT 01/M12 A3053 RMK A01 T00081122  RH  037%=      5-min Rain = 0
KST2 122008Z 31004KT 01/M12 A3053 RMK A01 T00081123  RH  037%=      5-min Rain = 0
KST2 122009Z 30003KT 01/M13 A3053 RMK A01 T00081126  RH  036%=      5-min Rain = 0
KST2 122010Z 33003KT 01/M13 A3053 RMK A01 T00081128  RH  035%=      5-min Rain = 0
KST2 122011Z 33002KT 01/M13 A3053 RMK A01 T00081128  RH  035%=      5-min Rain = 0
KST2 122012Z 01002KT 01/M13 A3053 RMK A01 T00081134  RH  034%=      5-min Rain = 0
KST2 122013Z 00001KT 01/M14 A3053 RMK A01 T00071137  RH  033%=      5-min Rain = 0
KST2 122014Z 22000KT 01/M13 A3053 RMK A01 T00071133  RH  034%=      5-min Rain = 0
KST2 122015Z 21000KT 01/M13 A3053 RMK A01 T00091131  RH  034%=      5-min Rain = 0
KST2 122016Z 33000KT 01/M13 A3053 RMK A01 T00111125  RH  035%=      5-min Rain = 0
KST2 122017Z 27001KT 01/M13 A3053 RMK A01 T00131129  RH  034%=      5-min Rain = 0
KST2 122018Z 26003KT 01/M13 A3053 RMK A01 T00141130  RH  033%=      5-min Rain = 0
KST2 122019Z 24003KT 01/M12 A3053 RMK A01 T00141121  RH  036%=      5-min Rain = 0
KST2 122020Z 22004KT 01/M13 A3053 RMK A01 T00131125  RH  035%=      5-min Rain = 0
KST2 122021Z 23005KT 01/M13 A3053 RMK A01 T00111126  RH  035%=      5-min Rain = 0
KST2 122022Z 22005KT 01/M13 A3053 RMK A01 T00101127  RH  035%=      5-min Rain = 0
KST2 122023Z 20004KT 01/M13 A3053 RMK A01 T00081131  RH  035%=      5-min Rain = 0
KST2 122024Z 22002KT 01/M13 A3053 RMK A01 T00071133  RH  034%=      5-min Rain = 0
KST2 122025Z 21004KT 01/M13 A3053 RMK A01 T00071130  RH  035%=      5-min Rain = 0
KST2 122026Z 21003KT 01/M13 A3053 RMK A01 T00061128  RH  036%=      5-min Rain = 0
KST2 122027Z 22004KT 01/M12 A3053 RMK A01 T00071123  RH  037%=      5-min Rain = 0
KST2 122028Z 22003KT 01/M13 A3053 RMK A01 T00071125  RH  036%=      5-min Rain = 0
KST2 122029Z 19002KT 01/M13 A3053 RMK A01 T00071131  RH  035%=      5-min Rain = 0
KST2 122030Z 18001KT 01/M13 A3053 RMK A01 T00061129  RH  036%=      5-min Rain = 0
KST2 122031Z 15000KT 01/M13 A3052 RMK A01 T00071125  RH  037%=      5-min Rain = 0
KST2 122032Z 15002KT 01/M13 A3052 RMK A01 T00071127  RH  036%=      5-min Rain = 0
KST2 122033Z 15001KT 01/M13 A3052 RMK A01 T00081126  RH  036%=      5-min Rain = 0
KST2 122034Z 15002KT 01/M13 A3052 RMK A01 T00081128  RH  035%=      5-min Rain = 0
KST2 122035Z 29002KT 01/M12 A3052 RMK A01 T00091124  RH  036%=      5-min Rain = 0
KST2 122036Z 30003KT 01/M13 A3052 RMK A01 T00101125  RH  036%=      5-min Rain = 0
KST2 122037Z 30001KT 01/M13 A3052 RMK A01 T00091130  RH  035%=      5-min Rain = 0
KST2 122038Z 27002KT 01/M13 A3052 RMK A01 T00081130  RH  035%=      5-min Rain = 0
KST2 122039Z 28003KT 01/M13 A3052 RMK A01 T00081129  RH  035%=      5-min Rain = 0
KST2 122040Z 27004KT 01/M13 A3051 RMK A01 T00081128  RH  035%=      5-min Rain = 0
KST2 122041Z 28004KT 01/M13 A3051 RMK A01 T00071130  RH  035%=      5-min Rain = 0
KST2 122042Z 27004KT 01/M13 A3051 RMK A01 T00071130  RH  035%=      5-min Rain = 0
KST2 122043Z 27003KT 01/M13 A3051 RMK A01 T00061133  RH  034%=      5-min Rain = 0
KST2 122044Z 27002KT 01/M13 A3051 RMK A01 T00051132  RH  035%=      5-min Rain = 0
KST2 122045Z 26002KT 01/M13 A3051 RMK A01 T00051134  RH  034%=      5-min Rain = 0
KST2 122046Z 25002KT 01/M14 A3051 RMK A01 T00051135  RH  034%=      5-min Rain = 0
KST2 122047Z 25001KT 01/M13 A3051 RMK A01 T00051133  RH  035%=      5-min Rain = 0
KST2 122048Z 23001KT 01/M14 A3051 RMK A01 T00051135  RH  034%=      5-min Rain = 0
KST2 122049Z 24001KT 01/M14 A305 RMK A01 T00051136  RH  034%=      5-min Rain = 0
KST2 122050Z 22001KT 01/M14 A305 RMK A01 T00051136  RH  034%=      5-min Rain = 0
KST2 122051Z 22002KT 01/M14 A3051 RMK A01 T00051136  RH  034%=      5-min Rain = 0
KST2 122052Z 22002KT 01/M13 A3051 RMK A01 T00051133  RH  035%=      5-min Rain = 0
KST2 122053Z 21002KT 01/M13 A3051 RMK A01 T00061132  RH  035%=      5-min Rain = 0
KST2 122054Z 19002KT 01/M14 A3051 RMK A01 T00051135  RH  034%=      5-min Rain = 0
KST2 122055Z 18001KT 01/M13 A3051 RMK A01 T00051134  RH  034%=      5-min Rain = 0
KST2 122056Z 17001KT 01/M14 A3051 RMK A01 T00061136  RH  034%=      5-min Rain = 0
KST2 122057Z 18001KT 01/M14 A3051 RMK A01 T00061138  RH  033%=      5-min Rain = 0
KST2 122058Z 19001KT 01/M14 A3051 RMK A01 T00061137  RH  033%=      5-min Rain = 0
KST2 122059Z 23000KT 01/M13 A3051 RMK A01 T00061134  RH  034%=      5-min Rain = 0
KST2 122100Z 24001KT 01/M13 A3051 RMK A01 T00071132  RH  034%=      5-min Rain = 0
KST2 122101Z 22001KT 01/M13 A3051 RMK A01 T00081133  RH  034%=      5-min Rain = 0
KST2 122102Z 22001KT 01/M13 A3051 RMK A01 T00081134  RH  034%=      5-min Rain = 0
KST2 122103Z 22002KT 01/M13 A3051 RMK A01 T00091133  RH  034%=      5-min Rain = 0
KST2 122104Z 22002KT 01/M14 A3051 RMK A01 T00091135  RH  033%=      5-min Rain = 0
KST2 122105Z 19002KT 01/M13 A3051 RMK A01 T00091133  RH  034%=      5-min Rain = 0
KST2 122106Z 17001KT 01/M13 A305 RMK A01 T00101131  RH  034%=      5-min Rain = 0
KST2 122107Z 17000KT 01/M13 A305 RMK A01 T00101129  RH  035%=      5-min Rain = 0
KST2 122108Z 27001KT 01/M13 A305 RMK A01 T00111127  RH  035%=      5-min Rain = 0
KST2 122109Z 27001KT 01/M13 A305 RMK A01 T00131127  RH  035%=      5-min Rain = 0
KST2 122110Z 28002KT 01/M13 A305 RMK A01 T00131128  RH  034%=      5-min Rain = 0
KST2 122111Z 29001KT 01/M13 A305 RMK A01 T00121132  RH  033%=      5-min Rain = 0
KST2 122112Z 31000KT 01/M13 A305 RMK A01 T00111132  RH  033%=      5-min Rain = 0
KST2 122113Z 00000KT 01/M13 A305 RMK A01 T00111133  RH  033%=      5-min Rain = 0
KST2 122114Z 00000KT 01/M13 A305 RMK A01 T00111130  RH  034%=      5-min Rain = 0
KST2 122115Z 00000KT 01/M13 A305 RMK A01 T00111131  RH  034%=      5-min Rain = 0
KST2 122116Z 25001KT 01/M13 A305 RMK A01 T00121132  RH  033%=      5-min Rain = 0
KST2 122117Z 24002KT 01/M13 A305 RMK A01 T00121132  RH  033%=      5-min Rain = 0
KST2 122118Z 25001KT 01/M13 A305 RMK A01 T00121132  RH  033%=      5-min Rain = 0
KST2 122119Z 25001KT 01/M13 A305 RMK A01 T00111134  RH  033%=      5-min Rain = 0
KST2 122120Z 23004KT 01/M13 A305 RMK A01 T00111130  RH  034%=      5-min Rain = 0
KST2 122121Z 24003KT 01/M13 A305 RMK A01 T00111127  RH  035%=      5-min Rain = 0
KST2 122122Z 27001KT 01/M13 A305 RMK A01 T00101128  RH  035%=      5-min Rain = 0
KST2 122123Z 28001KT 01/M13 A3049 RMK A01 T00101128  RH  035%=      5-min Rain = 0
KST2 122124Z 20001KT 01/M13 A3049 RMK A01 T00101127  RH  035%=      5-min Rain = 0
KST2 122125Z 21004KT 01/M13 A305 RMK A01 T00101127  RH  035%=      5-min Rain = 0
KST2 122126Z 21005KT 01/M13 A305 RMK A01 T00101125  RH  036%=      5-min Rain = 0
KST2 122127Z 20004KT 01/M13 A305 RMK A01 T00101126  RH  036%=      5-min Rain = 0
KST2 122128Z 20004KT 01/M13 A305 RMK A01 T00091126  RH  036%=      5-min Rain = 0
KST2 122129Z 21003KT 01/M13 A3049 RMK A01 T00091126  RH  036%=      5-min Rain = 0
KST2 122130Z 22002KT 01/M13 A3049 RMK A01 T00091126  RH  036%=      5-min Rain = 0
KST2 122131Z 24002KT 01/M12 A3049 RMK A01 T00101119  RH  038%=      5-min Rain = 0
KST2 122132Z 20001KT 01/M12 A3049 RMK A01 T00101121  RH  037%=      5-min Rain = 0
KST2 122133Z 22001KT 01/M12 A3049 RMK A01 T00111123  RH  036%=      5-min Rain = 0
KST2 122134Z 28001KT 01/M13 A3049 RMK A01 T00111125  RH  035%=      5-min Rain = 0
KST2 122135Z 30000KT 01/M12 A3048 RMK A01 T00121121  RH  036%=      5-min Rain = 0
KST2 122136Z 31000KT 01/M12 A3048 RMK A01 T00131119  RH  037%=      5-min Rain = 0
KST2 122137Z 00000KT 01/M12 A3048 RMK A01 T00141118  RH  037%=      5-min Rain = 0
KST2 122138Z 15001KT 02/M12 A3048 RMK A01 T00151116  RH  037%=      5-min Rain = 0
KST2 122139Z 15002KT 02/M12 A3048 RMK A01 T00161118  RH  036%=      5-min Rain = 0
KST2 122140Z 22002KT 02/M12 A3049 RMK A01 T00151121  RH  036%=      5-min Rain = 0
KST2 122141Z 24002KT 01/M12 A3049 RMK A01 T00141116  RH  037%=      5-min Rain = 0
KST2 122142Z 27003KT 01/M12 A3048 RMK A01 T00141118  RH  037%=      5-min Rain = 0
KST2 122143Z 27002KT 01/M12 A3048 RMK A01 T00131119  RH  037%=      5-min Rain = 0
KST2 122144Z 27002KT 01/M12 A3048 RMK A01 T00131119  RH  037%=      5-min Rain = 0
KST2 122145Z 24002KT 01/M12 A3048 RMK A01 T00131123  RH  036%=      5-min Rain = 0
KST2 122146Z 25003KT 01/M13 A3048 RMK A01 T00111125  RH  035%=      5-min Rain = 0
KST2 122147Z 26002KT 01/M13 A3048 RMK A01 T00111125  RH  036%=      5-min Rain = 0
KST2 122148Z 26002KT 01/M13 A3048 RMK A01 T00101126  RH  036%=      5-min Rain = 0
KST2 122149Z 26002KT 01/M13 A3048 RMK A01 T00101128  RH  035%=      5-min Rain = 0
KST2 122150Z 28001KT 01/M13 A3048 RMK A01 T00091129  RH  035%=      5-min Rain = 0
KST2 122151Z 29001KT 01/M13 A3048 RMK A01 T00091130  RH  035%=      5-min Rain = 0
KST2 122152Z 00000KT 01/M13 A3048 RMK A01 T00091129  RH  035%=      5-min Rain = 0
KST2 122153Z 29000KT 01/M13 A3048 RMK A01 T00091130  RH  035%=      5-min Rain = 0
KST2 122154Z 00000KT 01/M13 A3048 RMK A01 T00091130  RH  035%=      5-min Rain = 0
KST2 122155Z 20000KT 01/M13 A3048 RMK A01 T00091130  RH  035%=      5-min Rain = 0
KST2 122156Z 18000KT 01/M13 A3048 RMK A01 T00091125  RH  036%=      5-min Rain = 0
KST2 122157Z 21002KT 01/M13 A3048 RMK A01 T00101126  RH  036%=      5-min Rain = 0
KST2 122158Z 22001KT 01/M13 A3048 RMK A01 T00101129  RH  035%=      5-min Rain = 0
KST2 122159Z 20001KT 01/M13 A3048 RMK A01 T00101127  RH  035%=      5-min Rain = 0
KST2 122200Z 24000KT 01/M13 A3048 RMK A01 T00101125  RH  036%=      5-min Rain = 0
KST2 122201Z 23001KT 01/M13 A3048 RMK A01 T00101126  RH  036%=      5-min Rain = 0
KST2 122202Z 22002KT 01/M13 A3048 RMK A01 T00101126  RH  035%=      5-min Rain = 0
KST2 122203Z 25003KT 01/M12 A3048 RMK A01 T00111124  RH  036%=      5-min Rain = 0
KST2 122204Z 22003KT 01/M13 A3048 RMK A01 T00101126  RH  035%=      5-min Rain = 0
KST2 122205Z 21002KT 01/M13 A3048 RMK A01 T00091127  RH  035%=      5-min Rain = 0
KST2 122206Z 20003KT 01/M13 A3048 RMK A01 T00091126  RH  036%=      5-min Rain = 0
KST2 122207Z 20002KT 01/M12 A3048 RMK A01 T00091122  RH  037%=      5-min Rain = 0
KST2 122208Z 23003KT 01/M12 A3048 RMK A01 T00101124  RH  036%=      5-min Rain = 0
KST2 122209Z 23004KT 01/M13 A3048 RMK A01 T00101125  RH  036%=      5-min Rain = 0
KST2 122210Z 22003KT 01/M13 A3048 RMK A01 T00091125  RH  036%=      5-min Rain = 0
KST2 122211Z 22004KT 01/M12 A3048 RMK A01 T00091117  RH  038%=      5-min Rain = 0
KST2 122212Z 22005KT 01/M11 A3048 RMK A01 T00101113  RH  039%=      5-min Rain = 0
KST2 122213Z 22004KT 01/M12 A3048 RMK A01 T00111116  RH  038%=      5-min Rain = 0
KST2 122214Z 23003KT 01/M12 A3048 RMK A01 T00101119  RH  037%=      5-min Rain = 0
KST2 122215Z 23004KT 01/M12 A3048 RMK A01 T00101121  RH  037%=      5-min Rain = 0
KST2 122216Z 25004KT 01/M12 A3048 RMK A01 T00091121  RH  037%=      5-min Rain = 0
KST2 122217Z 25003KT 01/M12 A3048 RMK A01 T00091119  RH  038%=      5-min Rain = 0
KST2 122218Z 24002KT 01/M12 A3048 RMK A01 T00091117  RH  039%=      5-min Rain = 0
KST2 122219Z 19003KT 01/M11 A3048 RMK A01 T00091114  RH  039%=      5-min Rain = 0
KST2 122220Z 19003KT 01/M12 A3047 RMK A01 T00091117  RH  039%=      5-min Rain = 0
KST2 122221Z 21004KT 01/M11 A3047 RMK A01 T00091114  RH  039%=      5-min Rain = 0
KST2 122222Z 21006KT 01/M11 A3047 RMK A01 T00091111  RH  040%=      5-min Rain = 0
KST2 122223Z 21006KT 01/M11 A3047 RMK A01 T00101109  RH  041%=      5-min Rain = 0
KST2 122224Z 22006KT 01/M11 A3047 RMK A01 T00091110  RH  040%=      5-min Rain = 0
KST2 122225Z 21004KT 01/M11 A3047 RMK A01 T00091110  RH  040%=      5-min Rain = 0
KST2 122226Z 20004KT 01/M11 A3047 RMK A01 T00081106  RH  042%=      5-min Rain = 0
KST2 122227Z 20004KT 01/M11 A3047 RMK A01 T00081112  RH  040%=      5-min Rain = 0
KST2 122228Z 20005KT 01/M11 A3047 RMK A01 T00081113  RH  040%=      5-min Rain = 0
KST2 122229Z 22007KT 01/M11 A3047 RMK A01 T00081107  RH  042%=      5-min Rain = 0
KST2 122230Z 21007KT 01/M10 A3047 RMK A01 T00081104  RH  043%=      5-min Rain = 0
KST2 122231Z 20006KT 01/M11 A3047 RMK A01 T00091109  RH  041%=      5-min Rain = 0
KST2 122232Z 21006KT 01/M11 A3047 RMK A01 T00081109  RH  041%=      5-min Rain = 0
KST2 122233Z 21006KT 01/M11 A3047 RMK A01 T00081108  RH  041%=      5-min Rain = 0
KST2 122234Z 21006KT 01/M10 A3047 RMK A01 T00081101  RH  044%=      5-min Rain = 0
KST2 122235Z 21005KT 01/M10 A3047 RMK A01 T00081102  RH  044%=      5-min Rain = 0
KST2 122236Z 22005KT 01/M10 A3047 RMK A01 T00091103  RH  043%=      5-min Rain = 0
KST2 122237Z 21005KT 01/M10 A3047 RMK A01 T00081104  RH  043%=      5-min Rain = 0
KST2 122238Z 19005KT 01/M11 A3047 RMK A01 T00081105  RH  043%=      5-min Rain = 0
KST2 122239Z 19004KT 01/M11 A3047 RMK A01 T00081108  RH  042%=      5-min Rain = 0
KST2 122240Z 19005KT 01/M10 A3047 RMK A01 T00081102  RH  044%=      5-min Rain = 0
KST2 122241Z 20006KT 01/M10 A3047 RMK A01 T00081098  RH  045%=      5-min Rain = 0
KST2 122242Z 19005KT 01/M11 A3047 RMK A01 T00091105  RH  042%=      5-min Rain = 0
KST2 122243Z 20005KT 01/M11 A3047 RMK A01 T00081108  RH  042%=      5-min Rain = 0
KST2 122244Z 20004KT 01/M11 A3047 RMK A01 T00071109  RH  041%=      5-min Rain = 0
KST2 122245Z 21004KT 01/M11 A3047 RMK A01 T00071107  RH  042%=      5-min Rain = 0
KST2 122246Z 20004KT 01/M10 A3046 RMK A01 T00071104  RH  043%=      5-min Rain = 0
KST2 122247Z 21005KT 01/M11 A3046 RMK A01 T00071105  RH  043%=      5-min Rain = 0
KST2 122248Z 21005KT 01/M11 A3046 RMK A01 T00071108  RH  042%=      5-min Rain = 0
KST2 122249Z 21005KT 01/M11 A3046 RMK A01 T00061105  RH  043%=      5-min Rain = 0
KST2 122250Z 21004KT 01/M11 A3046 RMK A01 T00061106  RH  043%=      5-min Rain = 0
KST2 122251Z 21005KT 01/M11 A3046 RMK A01 T00061105  RH  043%=      5-min Rain = 0
KST2 122252Z 21005KT 01/M11 A3046 RMK A01 T00061107  RH  043%=      5-min Rain = 0
KST2 122253Z 21005KT 01/M11 A3046 RMK A01 T00061107  RH  042%=      5-min Rain = 0
KST2 122254Z 22005KT 01/M11 A3046 RMK A01 T00061108  RH  042%=      5-min Rain = 0
KST2 122255Z 21005KT 01/M11 A3046 RMK A01 T00061106  RH  043%=      5-min Rain = 0
KST2 122256Z 22004KT 01/M11 A3046 RMK A01 T00061106  RH  043%=      5-min Rain = 0
KST2 122257Z 21004KT 01/M10 A3046 RMK A01 T00061101  RH  045%=      5-min Rain = 0
KST2 122258Z 22005KT 01/M10 A3046 RMK A01 T00061100  RH  045%=      5-min Rain = 0
KST2 122259Z 21005KT 01/M10 A3046 RMK A01 T00071099  RH  045%=      5-min Rain = 0
KST2 122300Z 20005KT 01/M10 A3046 RMK A01 T00071102  RH  044%=      5-min Rain = 0
KST2 122301Z 20005KT 01/M11 A3046 RMK A01 T00061106  RH  043%=      5-min Rain = 0
KST2 122302Z 20004KT 01/M10 A3046 RMK A01 T00061104  RH  043%=      5-min Rain = 0
KST2 122303Z 20005KT 01/M10 A3046 RMK A01 T00061103  RH  044%=      5-min Rain = 0
KST2 122304Z 20005KT 01/M10 A3046 RMK A01 T00051102  RH  044%=      5-min Rain = 0
KST2 122305Z 21005KT 01/M10 A3046 RMK A01 T00051101  RH  045%=      5-min Rain = 0
KST2 122306Z 20005KT 01/M10 A3046 RMK A01 T00051103  RH  044%=      5-min Rain = 0
KST2 122307Z 19004KT 01/M10 A3046 RMK A01 T00051103  RH  044%=      5-min Rain = 0
KST2 122308Z 19004KT 01/M10 A3046 RMK A01 T00061103  RH  044%=      5-min Rain = 0
KST2 122309Z 19004KT 01/M10 A3046 RMK A01 T00051104  RH  044%=      5-min Rain = 0
KST2 122310Z 21004KT 01/M10 A3046 RMK A01 T00051100  RH  045%=      5-min Rain = 0
KST2 122311Z 20004KT 01/M10 A3046 RMK A01 T00051098  RH  046%=      5-min Rain = 0
KST2 122312Z 21005KT 01/M10 A3046 RMK A01 T00051097  RH  046%=      5-min Rain = 0
KST2 122313Z 21005KT 01/M10 A3045 RMK A01 T00051101  RH  045%=      5-min Rain = 0
KST2 122314Z 20005KT 01/M10 A3045 RMK A01 T00051104  RH  044%=      5-min Rain = 0
KST2 122315Z 20004KT 01/M10 A3045 RMK A01 T00051103  RH  044%=      5-min Rain = 0
KST2 122316Z 19004KT 00/M10 A3045 RMK A01 T00041102  RH  045%=      5-min Rain = 0
KST2 122317Z 20004KT 00/M11 A3045 RMK A01 T00041107  RH  043%=      5-min Rain = 0
KST2 122318Z 20004KT 00/M10 A3045 RMK A01 T00041103  RH  045%=      5-min Rain = 0
KST2 122319Z 20003KT 00/M10 A3045 RMK A01 T00041104  RH  044%=      5-min Rain = 0
KST2 122320Z 18003KT 00/M10 A3044 RMK A01 T00041104  RH  044%=      5-min Rain = 0
KST2 122321Z 18003KT 00/M11 A3044 RMK A01 T00041105  RH  044%=      5-min Rain = 0
KST2 122322Z 17003KT 00/M10 A3044 RMK A01 T00041102  RH  045%=      5-min Rain = 0
KST2 122323Z 18003KT 00/M10 A3044 RMK A01 T00041098  RH  046%=      5-min Rain = 0
KST2 122324Z 18003KT 00/M10 A3044 RMK A01 T00041099  RH  046%=      5-min Rain = 0
KST2 122325Z 18002KT 00/M10 A3044 RMK A01 T00041103  RH  045%=      5-min Rain = 0
KST2 122326Z 18002KT 00/M10 A3044 RMK A01 T00041102  RH  045%=      5-min Rain = 0
KST2 122327Z 18002KT 00/M10 A3044 RMK A01 T00041102  RH  045%=      5-min Rain = 0
KST2 122328Z 18002KT 00/M10 A3044 RMK A01 T00041101  RH  045%=      5-min Rain = 0
KST2 122329Z 19003KT 00/M10 A3044 RMK A01 T00041101  RH  045%=      5-min Rain = 0
KST2 122330Z 19003KT 00/M10 A3044 RMK A01 T00041103  RH  045%=      5-min Rain = 0
KST2 122331Z 19003KT 00/M10 A3044 RMK A01 T00031102  RH  045%=      5-min Rain = 0
KST2 122332Z 20003KT 00/M10 A3044 RMK A01 T00031102  RH  045%=      5-min Rain = 0
KST2 122333Z 20003KT 00/M10 A3044 RMK A01 T00031100  RH  046%=      5-min Rain = 0
KST2 122334Z 20003KT 00/M10 A3044 RMK A01 T00031102  RH  045%=      5-min Rain = 0
KST2 122335Z 20003KT 00/M10 A3044 RMK A01 T00031101  RH  046%=      5-min Rain = 0
KST2 122336Z 20003KT 00/M10 A3044 RMK A01 T00031098  RH  047%=      5-min Rain = 0
KST2 122337Z 19003KT 00/M10 A3044 RMK A01 T00031096  RH  047%=      5-min Rain = 0
KST2 122338Z 19003KT 00/M10 A3044 RMK A01 T00031097  RH  047%=      5-min Rain = 0
KST2 122339Z 19003KT 00/M10 A3044 RMK A01 T00031096  RH  048%=      5-min Rain = 0
KST2 122340Z 19003KT 00/M10 A3044 RMK A01 T00031095  RH  048%=      5-min Rain = 0
KST2 122341Z 18003KT 00/M10 A3044 RMK A01 T00031095  RH  048%=      5-min Rain = 0
KST2 122342Z 19003KT 00/M10 A3044 RMK A01 T00031095  RH  048%=      5-min Rain = 0
KST2 122343Z 19003KT 00/M09 A3044 RMK A01 T00021094  RH  048%=      5-min Rain = 0
KST2 122344Z 20003KT 00/M10 A3044 RMK A01 T00021097  RH  047%=      5-min Rain = 0
KST2 122345Z 20003KT 00/M10 A3044 RMK A01 T00021096  RH  048%=      5-min Rain = 0
KST2 122346Z 20004KT 00/M09 A3044 RMK A01 T00021093  RH  049%=      5-min Rain = 0
KST2 122347Z 20004KT 00/M09 A3044 RMK A01 T00021094  RH  049%=      5-min Rain = 0
KST2 122348Z 19004KT 00/M10 A3044 RMK A01 T00021095  RH  048%=      5-min Rain = 0
KST2 122349Z 20004KT 00/M09 A3044 RMK A01 T00021093  RH  049%=      5-min Rain = 0
KST2 122350Z 20004KT 00/M09 A3043 RMK A01 T00021092  RH  049%=      5-min Rain = 0
KST2 122351Z 20003KT 00/M09 A3043 RMK A01 T00021090  RH  050%=      5-min Rain = 0
KST2 122352Z 21004KT 00/M09 A3043 RMK A01 T00021087  RH  051%=      5-min Rain = 0
KST2 122353Z 20004KT 00/M09 A3043 RMK A01 T00021087  RH  051%=      5-min Rain = 0
KST2 122354Z 20004KT 00/M09 A3044 RMK A01 T00011087  RH  051%=      5-min Rain = 0
KST2 122355Z 20004KT 00/M09 A3044 RMK A01 T00011086  RH  052%=      5-min Rain = 0
KST2 122356Z 20004KT 00/M08 A3044 RMK A01 T00011084  RH  053%=      5-min Rain = 0
KST2 122357Z 20004KT 00/M08 A3044 RMK A01 T00011083  RH  053%=      5-min Rain = 0
KST2 122358Z 20004KT 00/M08 A3044 RMK A01 T00011083  RH  053%=      5-min Rain = 0
KST2 122359Z 20004KT 00/M08 A3044 RMK A01 T00011082  RH  054%=      5-min Rain = 0
KST2 130000Z 20004KT 00/M08 A3044 RMK A01 T00011083  RH  053%=      5-min Rain = 0
KST2 130001Z 20004KT 00/08 A3044 RMK A01 T00000-82  RH  054%=      5-min Rain = 0
KST2 130002Z 19004KT 00/08 A3044 RMK A01 T00000-84  RH  053%=      5-min Rain = 0
KST2 130003Z 19004KT 00/08 A3044 RMK A01 T00-00-84  RH  053%=      5-min Rain = 0
KST2 130004Z 19004KT 00/08 A3044 RMK A01 T00-00-84  RH  054%=      5-min Rain = 0
KST2 130005Z 19004KT 00/08 A3044 RMK A01 T00-00-84  RH  053%=      5-min Rain = 0
KST2 130006Z 19003KT M00/M08 A3044 RMK A01 T10011084  RH  054%=      5-min Rain = 0
KST2 130007Z 19003KT M00/M08 A3044 RMK A01 T10011083  RH  054%=      5-min Rain = 0
KST2 130008Z 20003KT M00/M08 A3044 RMK A01 T10011084  RH  053%=      5-min Rain = 0
KST2 130009Z 20003KT M00/M09 A3044 RMK A01 T10011087  RH  053%=      5-min Rain = 0
KST2 130010Z 20003KT M00/M09 A3044 RMK A01 T10021087  RH  053%=      5-min Rain = 0
KST2 130011Z 20003KT M00/M09 A3044 RMK A01 T10021085  RH  053%=      5-min Rain = 0
KST2 130012Z 20003KT M00/M08 A3044 RMK A01 T10021083  RH  054%=      5-min Rain = 0
KST2 130013Z 20003KT M00/M08 A3044 RMK A01 T10021083  RH  054%=      5-min Rain = 0
KST2 130014Z 20003KT M00/M08 A3044 RMK A01 T10021081  RH  055%=      5-min Rain = 0
KST2 130015Z 19003KT M00/M08 A3044 RMK A01 T10021080  RH  055%=      5-min Rain = 0
KST2 130016Z 19003KT M00/M08 A3044 RMK A01 T10021080  RH  056%=      5-min Rain = 0
KST2 130017Z 19003KT M00/M08 A3044 RMK A01 T10021081  RH  055%=      5-min Rain = 0
KST2 130018Z 19003KT M00/M08 A3044 RMK A01 T10021082  RH  055%=      5-min Rain = 0
KST2 130019Z 19003KT M00/M08 A3044 RMK A01 T10021081  RH  055%=      5-min Rain = 0
KST2 130020Z 19004KT M00/M08 A3044 RMK A01 T10021080  RH  056%=      5-min Rain = 0
KST2 130021Z 19003KT M00/M08 A3044 RMK A01 T10021079  RH  056%=      5-min Rain = 0
KST2 130022Z 19003KT M00/M08 A3044 RMK A01 T10021079  RH  056%=      5-min Rain = 0
KST2 130023Z 19003KT M00/M08 A3043 RMK A01 T10031077  RH  057%=      5-min Rain = 0
KST2 130024Z 19003KT M00/M08 A3043 RMK A01 T10031076  RH  058%=      5-min Rain = 0
KST2 130025Z 19003KT M00/M08 A3043 RMK A01 T10031076  RH  058%=      5-min Rain = 0
KST2 130026Z 19003KT M00/M08 A3043 RMK A01 T10031077  RH  058%=      5-min Rain = 0
KST2 130027Z 19003KT M00/M08 A3043 RMK A01 T10031078  RH  057%=      5-min Rain = 0
KST2 130028Z 19003KT M00/M08 A3043 RMK A01 T10031077  RH  058%=      5-min Rain = 0
KST2 130029Z 19003KT M00/M08 A3043 RMK A01 T10031075  RH  058%=      5-min Rain = 0
KST2 130030Z 19003KT M00/M08 A3043 RMK A01 T10031075  RH  058%=      5-min Rain = 0
KST2 130031Z 19002KT M00/M08 A3043 RMK A01 T10031075  RH  058%=      5-min Rain = 0
KST2 130032Z 18002KT M00/M08 A3043 RMK A01 T10031076  RH  058%=      5-min Rain = 0
KST2 130033Z 18002KT M00/M07 A3043 RMK A01 T10031073  RH  059%=      5-min Rain = 0
KST2 130034Z 18003KT M00/M07 A3042 RMK A01 T10031072  RH  060%=      5-min Rain = 0
KST2 130035Z 17003KT M00/M07 A3042 RMK A01 T10031071  RH  060%=      5-min Rain = 0
KST2 130036Z 17003KT M00/M07 A3042 RMK A01 T10031069  RH  061%=      5-min Rain = 0
KST2 130037Z 17003KT M00/M07 A3042 RMK A01 T10031067  RH  062%=      5-min Rain = 0
KST2 130038Z 17003KT M00/M07 A3042 RMK A01 T10031066  RH  062%=      5-min Rain = 0
KST2 130039Z 17003KT M00/M06 A3042 RMK A01 T10031064  RH  063%=      5-min Rain = 0
KST2 130040Z 17003KT M00/M06 A3042 RMK A01 T10041064  RH  064%=      5-min Rain = 0
KST2 130041Z 17003KT M00/M06 A3042 RMK A01 T10041064  RH  064%=      5-min Rain = 0
KST2 130042Z 17003KT M00/M06 A3042 RMK A01 T10031063  RH  064%=      5-min Rain = 0
KST2 130043Z 17003KT M00/M06 A3042 RMK A01 T10041063  RH  064%=      5-min Rain = 0
KST2 130044Z 17003KT M00/M06 A3042 RMK A01 T10041063  RH  064%=      5-min Rain = 0
KST2 130045Z 17003KT M00/M06 A3042 RMK A01 T10041063  RH  064%=      5-min Rain = 0
KST2 130046Z 17004KT M00/M06 A3042 RMK A01 T10041062  RH  065%=      5-min Rain = 0
KST2 130047Z 17003KT M00/M06 A3042 RMK A01 T10041061  RH  065%=      5-min Rain = 0
KST2 130048Z 17003KT M00/M06 A3042 RMK A01 T10041061  RH  066%=      5-min Rain = 0
KST2 130049Z 17003KT M00/M06 A3042 RMK A01 T10041060  RH  066%=      5-min Rain = 0
KST2 130050Z 17003KT M00/M06 A3042 RMK A01 T10041061  RH  066%=      5-min Rain = 0
KST2 130051Z 17004KT M00/M06 A3042 RMK A01 T10041060  RH  066%=      5-min Rain = 0
KST2 130052Z 17004KT M00/M06 A3042 RMK A01 T10041060  RH  066%=      5-min Rain = 0
KST2 130053Z 17004KT M00/M06 A3042 RMK A01 T10041061  RH  066%=      5-min Rain = 0
KST2 130054Z 17004KT M01/M06 A3042 RMK A01 T10051062  RH  065%=      5-min Rain = 0
KST2 130055Z 17004KT M01/M06 A3042 RMK A01 T10051063  RH  065%=      5-min Rain = 0
KST2 130056Z 17004KT M01/M06 A3042 RMK A01 T10051062  RH  065%=      5-min Rain = 0
KST2 130057Z 17004KT M01/M06 A3042 RMK A01 T10051064  RH  065%=      5-min Rain = 0
KST2 130058Z 17004KT M01/M06 A3042 RMK A01 T10051063  RH  065%=      5-min Rain = 0
KST2 130059Z 17004KT M01/M06 A3042 RMK A01 T10061062  RH  066%=      5-min Rain = 0
KST2 130100Z 17005KT M01/M06 A3042 RMK A01 T10061060  RH  067%=      5-min Rain = 0
KST2 130101Z 17005KT M01/M06 A3042 RMK A01 T10061059  RH  067%=      5-min Rain = 0
KST2 130102Z 17004KT M01/M06 A3042 RMK A01 T10061058  RH  068%=      5-min Rain = 0
KST2 130103Z 17004KT M01/M06 A3042 RMK A01 T10051058  RH  067%=      5-min Rain = 0
KST2 130104Z 17004KT M01/M06 A3042 RMK A01 T10061059  RH  067%=      5-min Rain = 0
KST2 130105Z 17004KT M01/M06 A3042 RMK A01 T10061060  RH  067%=      5-min Rain = 0
KST2 130106Z 17004KT M01/M06 A3042 RMK A01 T10071061  RH  067%=      5-min Rain = 0
KST2 130107Z 16004KT M01/M06 A3042 RMK A01 T10071062  RH  066%=      5-min Rain = 0
KST2 130108Z 16004KT M01/M06 A3041 RMK A01 T10071061  RH  067%=      5-min Rain = 0
KST2 130109Z 15004KT M01/M06 A3041 RMK A01 T10071061  RH  067%=      5-min Rain = 0
KST2 130110Z 15004KT M01/M06 A3041 RMK A01 T10071061  RH  067%=      5-min Rain = 0
KST2 130111Z 15004KT M01/M06 A3041 RMK A01 T10071059  RH  068%=      5-min Rain = 0
KST2 130112Z 15004KT M01/M06 A3041 RMK A01 T10071059  RH  068%=      5-min Rain = 0
KST2 130113Z 15005KT M01/M06 A3041 RMK A01 T10071059  RH  068%=      5-min Rain = 0
KST2 130114Z 15005KT M01/M06 A3041 RMK A01 T10081059  RH  068%=      5-min Rain = 0
KST2 130115Z 15004KT M01/M06 A3041 RMK A01 T10081058  RH  069%=      5-min Rain = 0
KST2 130116Z 15004KT M01/M06 A3041 RMK A01 T10081057  RH  069%=      5-min Rain = 0
KST2 130117Z 14005KT M01/M06 A3041 RMK A01 T10081056  RH  070%=      5-min Rain = 0
KST2 130118Z 14005KT M01/M06 A3041 RMK A01 T10081056  RH  070%=      5-min Rain = 0
KST2 130119Z 14005KT M01/M06 A3041 RMK A01 T10081055  RH  070%=      5-min Rain = 0
KST2 130120Z 14005KT M01/M05 A3041 RMK A01 T10081054  RH  071%=      5-min Rain = 0
KST2 130121Z 14005KT M01/M05 A3041 RMK A01 T10081054  RH  071%=      5-min Rain = 0
KST2 130122Z 14005KT M01/M06 A3041 RMK A01 T10081056  RH  070%=      5-min Rain = 0
KST2 130123Z 15005KT M01/M06 A3041 RMK A01 T10091057  RH  070%=      5-min Rain = 0
KST2 130124Z 15005KT M01/M06 A3041 RMK A01 T10091057  RH  070%=      5-min Rain = 0
KST2 130125Z 14005KT M01/M06 A3041 RMK A01 T10091057  RH  070%=      5-min Rain = 0
KST2 130126Z 14005KT M01/M06 A3041 RMK A01 T10091057  RH  070%=      5-min Rain = 0
KST2 130127Z 14005KT M01/M06 A3041 RMK A01 T10091058  RH  069%=      5-min Rain = 0
KST2 130128Z 14004KT M01/M06 A3041 RMK A01 T10091059  RH  069%=      5-min Rain = 0
KST2 130129Z 14004KT M01/M06 A3041 RMK A01 T10091060  RH  069%=      5-min Rain = 0
KST2 130130Z 14004KT M01/M06 A3041 RMK A01 T10091059  RH  069%=      5-min Rain = 0
KST2 130131Z 14004KT M01/M06 A3041 RMK A01 T10091059  RH  069%=      5-min Rain = 0
KST2 130132Z 14004KT M01/M06 A3041 RMK A01 T10091059  RH  069%=      5-min Rain = 0
KST2 130133Z 14005KT M01/M06 A3041 RMK A01 T10091059  RH  069%=      5-min Rain = 0
KST2 130134Z 15005KT M01/M06 A3041 RMK A01 T10101059  RH  069%=      5-min Rain = 0
KST2 130135Z 14005KT M01/M06 A3041 RMK A01 T10091058  RH  069%=      5-min Rain = 0
KST2 130136Z 14005KT M01/M06 A3041 RMK A01 T10101059  RH  069%=      5-min Rain = 0
KST2 130137Z 15005KT M01/M06 A3041 RMK A01 T10091059  RH  069%=      5-min Rain = 0
KST2 130138Z 15005KT M01/M06 A3041 RMK A01 T10091058  RH  070%=      5-min Rain = 0
KST2 130139Z 14005KT M01/M06 A3041 RMK A01 T10091058  RH  070%=      5-min Rain = 0
KST2 130140Z 14005KT M01/M06 A3041 RMK A01 T10101059  RH  069%=      5-min Rain = 0
KST2 130141Z 15005KT M01/M06 A3041 RMK A01 T10101059  RH  069%=      5-min Rain = 0
KST2 130142Z 15005KT M01/M06 A3041 RMK A01 T10101060  RH  069%=      5-min Rain = 0
KST2 130143Z 15005KT M01/M06 A3041 RMK A01 T10101060  RH  069%=      5-min Rain = 0
KST2 130144Z 15005KT M01/M06 A3041 RMK A01 T10101061  RH  068%=      5-min Rain = 0
KST2 130145Z 15005KT M01/M06 A3041 RMK A01 T10111061  RH  068%=      5-min Rain = 0
KST2 130146Z 15005KT M01/M06 A3041 RMK A01 T10111062  RH  068%=      5-min Rain = 0
KST2 130147Z 15005KT M01/M06 A3041 RMK A01 T10111062  RH  068%=      5-min Rain = 0
KST2 130148Z 15005KT M01/M06 A3041 RMK A01 T10111061  RH  069%=      5-min Rain = 0
KST2 130149Z 15005KT M01/M06 A3041 RMK A01 T10111062  RH  068%=      5-min Rain = 0
KST2 130150Z 15005KT M01/M06 A3041 RMK A01 T10111063  RH  068%=      5-min Rain = 0
KST2 130151Z 16005KT M01/M06 A3041 RMK A01 T10111063  RH  068%=      5-min Rain = 0
KST2 130152Z 16005KT M01/M06 A3041 RMK A01 T10111062  RH  068%=      5-min Rain = 0
KST2 130153Z 16004KT M01/M06 A3041 RMK A01 T10111061  RH  069%=      5-min Rain = 0
KST2 130154Z 16004KT M01/M06 A3041 RMK A01 T10121061  RH  069%=      5-min Rain = 0
KST2 130155Z 16004KT M01/M06 A3041 RMK A01 T10121061  RH  069%=      5-min Rain = 0
KST2 130156Z 16004KT M01/M06 A3041 RMK A01 T10121061  RH  069%=      5-min Rain = 0
KST2 130157Z 16004KT M01/M06 A3041 RMK A01 T10121062  RH  069%=      5-min Rain = 0
KST2 130158Z 16004KT M01/M06 A3041 RMK A01 T10131063  RH  069%=      5-min Rain = 0
KST2 130159Z 16004KT M01/M06 A304 RMK A01 T10131062  RH  069%=      5-min Rain = 0
KST2 130200Z 16004KT M01/M06 A304 RMK A01 T10131061  RH  070%=      5-min Rain = 0
KST2 130201Z 17004KT M01/M06 A304 RMK A01 T10131061  RH  070%=      5-min Rain = 0
KST2 130202Z 17004KT M01/M06 A304 RMK A01 T10131062  RH  070%=      5-min Rain = 0
KST2 130203Z 17004KT M01/M06 A304 RMK A01 T10141062  RH  070%=      5-min Rain = 0
KST2 130204Z 17004KT M01/M06 A304 RMK A01 T10131061  RH  070%=      5-min Rain = 0
KST2 130205Z 18004KT M01/M06 A304 RMK A01 T10131060  RH  070%=      5-min Rain = 0
KST2 130206Z 18004KT M01/M06 A304 RMK A01 T10141060  RH  071%=      5-min Rain = 0
KST2 130207Z 18004KT M01/M06 A304 RMK A01 T10141060  RH  071%=      5-min Rain = 0
KST2 130208Z 19005KT M01/M06 A304 RMK A01 T10141062  RH  070%=      5-min Rain = 0
KST2 130209Z 19004KT M02/M06 A304 RMK A01 T10151063  RH  070%=      5-min Rain = 0
KST2 130210Z 19004KT M02/M06 A3041 RMK A01 T10151064  RH  069%=      5-min Rain = 0
KST2 130211Z 19004KT M02/M06 A304 RMK A01 T10151064  RH  069%=      5-min Rain = 0
KST2 130212Z 19003KT M02/M06 A304 RMK A01 T10151064  RH  069%=      5-min Rain = 0
KST2 130213Z 18004KT M01/M06 A304 RMK A01 T10141064  RH  069%=      5-min Rain = 0
KST2 130214Z 18004KT M01/M07 A304 RMK A01 T10141065  RH  068%=      5-min Rain = 0
KST2 130215Z 19006KT M01/M07 A304 RMK A01 T10141067  RH  067%=      5-min Rain = 0
KST2 130216Z 18006KT M01/M07 A304 RMK A01 T10141070  RH  065%=      5-min Rain = 0
KST2 130217Z 19005KT M01/M07 A304 RMK A01 T10141071  RH  065%=      5-min Rain = 0
KST2 130218Z 19005KT M01/M07 A304 RMK A01 T10131070  RH  065%=      5-min Rain = 0
KST2 130219Z 19005KT M01/M07 A304 RMK A01 T10131069  RH  066%=      5-min Rain = 0
KST2 130220Z 18005KT M01/M07 A304 RMK A01 T10131069  RH  066%=      5-min Rain = 0
KST2 130221Z 18005KT M01/M07 A304 RMK A01 T10131070  RH  065%=      5-min Rain = 0
KST2 130222Z 18005KT M01/M07 A3039 RMK A01 T10131069  RH  066%=      5-min Rain = 0
KST2 130223Z 18005KT M01/M07 A3039 RMK A01 T10131068  RH  066%=      5-min Rain = 0
KST2 130224Z 18005KT M01/M07 A3039 RMK A01 T10131068  RH  066%=      5-min Rain = 0
KST2 130225Z 18005KT M01/M07 A3039 RMK A01 T10131067  RH  066%=      5-min Rain = 0
KST2 130226Z 18006KT M01/M07 A3039 RMK A01 T10131067  RH  067%=      5-min Rain = 0
KST2 130227Z 18005KT M01/M07 A3039 RMK A01 T10121065  RH  067%=      5-min Rain = 0
KST2 130228Z 18005KT M01/M07 A3039 RMK A01 T10131066  RH  067%=      5-min Rain = 0
KST2 130229Z 18006KT M01/M07 A3039 RMK A01 T10131067  RH  067%=      5-min Rain = 0
KST2 130230Z 18006KT M01/M07 A3039 RMK A01 T10131067  RH  066%=      5-min Rain = 0
KST2 130231Z 18005KT M01/M07 A3039 RMK A01 T10131067  RH  066%=      5-min Rain = 0
KST2 130232Z 17005KT M01/M07 A3039 RMK A01 T10131068  RH  066%=      5-min Rain = 0
KST2 130233Z 17006KT M01/M07 A3039 RMK A01 T10131067  RH  067%=      5-min Rain = 0
KST2 130234Z 17006KT M01/M07 A3039 RMK A01 T10131066  RH  067%=      5-min Rain = 0
KST2 130235Z 17005KT M01/M07 A3039 RMK A01 T10131066  RH  067%=      5-min Rain = 0
KST2 130236Z 17005KT M01/M07 A3039 RMK A01 T10131065  RH  068%=      5-min Rain = 0
KST2 130237Z 17005KT M01/M06 A3039 RMK A01 T10131064  RH  068%=      5-min Rain = 0
KST2 130238Z 17005KT M01/M06 A3039 RMK A01 T10131063  RH  068%=      5-min Rain = 0
KST2 130239Z 17005KT M01/M06 A3039 RMK A01 T10121064  RH  068%=      5-min Rain = 0
KST2 130240Z 17005KT M01/M06 A3039 RMK A01 T10131064  RH  068%=      5-min Rain = 0
KST2 130241Z 18005KT M01/M06 A3039 RMK A01 T10131064  RH  068%=      5-min Rain = 0
KST2 130242Z 18005KT M01/M06 A3039 RMK A01 T10131064  RH  068%=      5-min Rain = 0
KST2 130243Z 18005KT M01/M06 A3039 RMK A01 T10131064  RH  068%=      5-min Rain = 0
KST2 130244Z 18005KT M01/M06 A3039 RMK A01 T10131064  RH  068%=      5-min Rain = 0
KST2 130245Z 18005KT M01/M07 A3039 RMK A01 T10131065  RH  068%=      5-min Rain = 0
KST2 130246Z 18005KT M01/M07 A3038 RMK A01 T10131065  RH  068%=      5-min Rain = 0
KST2 130247Z 18005KT M01/M07 A3038 RMK A01 T10131065  RH  068%=      5-min Rain = 0
KST2 130248Z 18005KT M01/M06 A3038 RMK A01 T10131063  RH  068%=      5-min Rain = 0
KST2 130249Z 18005KT M01/M06 A3038 RMK A01 T10131063  RH  068%=      5-min Rain = 0
KST2 130250Z 18005KT M01/M07 A3038 RMK A01 T10131065  RH  068%=      5-min Rain = 0
KST2 130251Z 18005KT M01/M06 A3039 RMK A01 T10131064  RH  068%=      5-min Rain = 0
KST2 130252Z 18005KT M01/M06 A3039 RMK A01 T10131064  RH  068%=      5-min Rain = 0
KST2 130253Z 18005KT M01/M06 A3039 RMK A01 T10131063  RH  068%=      5-min Rain = 0
KST2 130254Z 18005KT M01/M06 A3039 RMK A01 T10131063  RH  069%=      5-min Rain = 0
KST2 130255Z 18005KT M01/M06 A3039 RMK A01 T10131063  RH  069%=      5-min Rain = 0
KST2 130256Z 18005KT M01/M06 A3038 RMK A01 T10131064  RH  068%=      5-min Rain = 0
KST2 130257Z 18006KT M01/M06 A3038 RMK A01 T10131064  RH  068%=      5-min Rain = 0
KST2 130258Z 18005KT M01/M06 A3038 RMK A01 T10121064  RH  068%=      5-min Rain = 0
KST2 130259Z 18005KT M01/M06 A3038 RMK A01 T10131063  RH  069%=      5-min Rain = 0
KST2 130300Z 18005KT M01/M06 A3038 RMK A01 T10131064  RH  068%=      5-min Rain = 0
KST2 130301Z 18006KT M01/M07 A3038 RMK A01 T10131066  RH  067%=      5-min Rain = 0
KST2 130302Z 18005KT M01/M07 A3038 RMK A01 T10131066  RH  067%=      5-min Rain = 0
KST2 130303Z 18005KT M01/M07 A3038 RMK A01 T10131065  RH  068%=      5-min Rain = 0
KST2 130304Z 18006KT M01/M07 A3038 RMK A01 T10131066  RH  067%=      5-min Rain = 0
KST2 130305Z 18006KT M01/M07 A3038 RMK A01 T10131065  RH  067%=      5-min Rain = 0
KST2 130306Z 18006KT M01/M07 A3039 RMK A01 T10131066  RH  067%=      5-min Rain = 0
KST2 130307Z 19006KT M01/M07 A3039 RMK A01 T10131067  RH  067%=      5-min Rain = 0
KST2 130308Z 19006KT M01/M07 A3039 RMK A01 T10131068  RH  066%=      5-min Rain = 0
KST2 130309Z 19006KT M01/M07 A3039 RMK A01 T10131068  RH  066%=      5-min Rain = 0
KST2 130310Z 19006KT M01/M07 A3039 RMK A01 T10131067  RH  067%=      5-min Rain = 0
KST2 130311Z 18006KT M01/M07 A3039 RMK A01 T10131068  RH  066%=      5-min Rain = 0
KST2 130312Z 18006KT M01/M07 A3039 RMK A01 T10131067  RH  067%=      5-min Rain = 0
KST2 130313Z 18006KT M01/M07 A3039 RMK A01 T10131068  RH  066%=      5-min Rain = 0
KST2 130314Z 18006KT M01/M07 A3039 RMK A01 T10131068  RH  066%=      5-min Rain = 0
KST2 130315Z 18006KT M01/M07 A3039 RMK A01 T10131067  RH  067%=      5-min Rain = 0
KST2 130316Z 18006KT M01/M07 A3038 RMK A01 T10131066  RH  067%=      5-min Rain = 0
KST2 130317Z 17005KT M01/M07 A3038 RMK A01 T10141065  RH  068%=      5-min Rain = 0
KST2 130318Z 18005KT M01/M06 A3038 RMK A01 T10141064  RH  068%=      5-min Rain = 0
KST2 130319Z 18005KT M01/M06 A3038 RMK A01 T10141062  RH  069%=      5-min Rain = 0
KST2 130320Z 17005KT M01/M06 A3038 RMK A01 T10131062  RH  069%=      5-min Rain = 0
KST2 130321Z 17005KT M01/M06 A3038 RMK A01 T10131063  RH  069%=      5-min Rain = 0
KST2 130322Z 17005KT M01/M06 A3038 RMK A01 T10141062  RH  070%=      5-min Rain = 0
KST2 130323Z 17005KT M01/M06 A3038 RMK A01 T10141061  RH  070%=      5-min Rain = 0
KST2 130324Z 17006KT M01/M06 A3038 RMK A01 T10141061  RH  070%=      5-min Rain = 0
KST2 130325Z 17006KT M01/M06 A3038 RMK A01 T10141062  RH  070%=      5-min Rain = 0
KST2 130326Z 17006KT M01/M06 A3038 RMK A01 T10141063  RH  069%=      5-min Rain = 0
KST2 130327Z 17006KT M02/M06 A3038 RMK A01 T10151064  RH  069%=      5-min Rain = 0
KST2 130328Z 17006KT M02/M06 A3038 RMK A01 T10151064  RH  069%=      5-min Rain = 0
KST2 130329Z 17006KT M02/M07 A3038 RMK A01 T10151065  RH  069%=      5-min Rain = 0
KST2 130330Z 17006KT M02/M07 A3038 RMK A01 T10151065  RH  069%=      5-min Rain = 0
KST2 130331Z 17007KT M02/M07 A3038 RMK A01 T10151065  RH  069%=      5-min Rain = 0
KST2 130332Z 17007KT M02/M07 A3038 RMK A01 T10151066  RH  068%=      5-min Rain = 0
KST2 130333Z 17006KT M02/M07 A3038 RMK A01 T10151066  RH  068%=      5-min Rain = 0
KST2 130334Z 17006KT M02/M07 A3038 RMK A01 T10151066  RH  068%=      5-min Rain = 0
KST2 130335Z 17006KT M02/M06 A3038 RMK A01 T10151064  RH  069%=      5-min Rain = 0
KST2 130336Z 17006KT M01/M07 A3038 RMK A01 T10141066  RH  068%=      5-min Rain = 0
KST2 130337Z 17006KT M02/M07 A3038 RMK A01 T10151068  RH  067%=      5-min Rain = 0
KST2 130338Z 17006KT M01/M07 A3038 RMK A01 T10141068  RH  067%=      5-min Rain = 0
KST2 130339Z 17006KT M02/M07 A3037 RMK A01 T10151068  RH  067%=      5-min Rain = 0
KST2 130340Z 17006KT M02/M07 A3037 RMK A01 T10151067  RH  067%=      5-min Rain = 0
KST2 130341Z 17007KT M02/M07 A3037 RMK A01 T10151067  RH  067%=      5-min Rain = 0
KST2 130342Z 17006KT M01/M07 A3037 RMK A01 T10141068  RH  067%=      5-min Rain = 0
KST2 130343Z 17006KT M01/M07 A3037 RMK A01 T10141067  RH  067%=      5-min Rain = 0
KST2 130344Z 17006KT M01/M07 A3037 RMK A01 T10141067  RH  067%=      5-min Rain = 0
KST2 130345Z 17006KT M01/M07 A3037 RMK A01 T10141067  RH  067%=      5-min Rain = 0
KST2 130346Z 17005KT M01/M07 A3037 RMK A01 T10141068  RH  067%=      5-min Rain = 0
KST2 130347Z 17005KT M01/M07 A3037 RMK A01 T10141069  RH  066%=      5-min Rain = 0
KST2 130348Z 17005KT M01/M07 A3037 RMK A01 T10141069  RH  066%=      5-min Rain = 0
KST2 130349Z 17006KT M01/M07 A3037 RMK A01 T10141068  RH  067%=      5-min Rain = 0
KST2 130350Z 17006KT M01/M07 A3037 RMK A01 T10141070  RH  066%=      5-min Rain = 0
KST2 130351Z 17006KT M02/M07 A3037 RMK A01 T10151070  RH  066%=      5-min Rain = 0
KST2 130352Z 17006KT M01/M07 A3037 RMK A01 T10141070  RH  066%=      5-min Rain = 0
KST2 130353Z 17006KT M01/M07 A3037 RMK A01 T10141070  RH  066%=      5-min Rain = 0
KST2 130354Z 17006KT M01/M07 A3037 RMK A01 T10141070  RH  066%=      5-min Rain = 0
KST2 130355Z 17006KT M02/M07 A3037 RMK A01 T10151070  RH  066%=      5-min Rain = 0
KST2 130356Z 17005KT M02/M07 A3037 RMK A01 T10151069  RH  066%=      5-min Rain = 0
KST2 130357Z 17005KT M02/M07 A3037 RMK A01 T10151068  RH  067%=      5-min Rain = 0
KST2 130358Z 18005KT M01/M07 A3037 RMK A01 T10141067  RH  067%=      5-min Rain = 0
KST2 130359Z 18005KT M02/M07 A3037 RMK A01 T10151068  RH  067%=      5-min Rain = 0
KST2 130400Z 18005KT M02/M07 A3037 RMK A01 T10151068  RH  067%=      5-min Rain = 0
KST2 130401Z 18005KT M02/M07 A3037 RMK A01 T10151066  RH  068%=      5-min Rain = 0
KST2 130402Z 18005KT M02/M07 A3037 RMK A01 T10151067  RH  068%=      5-min Rain = 0
KST2 130403Z 18005KT M02/M07 A3037 RMK A01 T10161067  RH  068%=      5-min Rain = 0
KST2 130404Z 18005KT M02/M07 A3037 RMK A01 T10161068  RH  067%=      5-min Rain = 0
KST2 130405Z 18006KT M02/M07 A3037 RMK A01 T10151068  RH  067%=      5-min Rain = 0
KST2 130406Z 18005KT M02/M07 A3037 RMK A01 T10151068  RH  067%=      5-min Rain = 0
KST2 130407Z 18005KT M02/M07 A3037 RMK A01 T10161068  RH  067%=      5-min Rain = 0
KST2 130408Z 18005KT M02/M07 A3037 RMK A01 T10161069  RH  067%=      5-min Rain = 0
KST2 130409Z 18005KT M02/M07 A3037 RMK A01 T10151068  RH  067%=      5-min Rain = 0
KST2 130410Z 18005KT M02/M07 A3037 RMK A01 T10151069  RH  067%=      5-min Rain = 0
KST2 130411Z 18006KT M02/M07 A3037 RMK A01 T10151070  RH  066%=      5-min Rain = 0
KST2 130412Z 18006KT M02/M07 A3037 RMK A01 T10151070  RH  066%=      5-min Rain = 0
KST2 130413Z 18006KT M02/M07 A3036 RMK A01 T10161071  RH  066%=      5-min Rain = 0
KST2 130414Z 18006KT M02/M07 A3036 RMK A01 T10151070  RH  066%=      5-min Rain = 0
KST2 130415Z 18006KT M02/M07 A3036 RMK A01 T10151069  RH  067%=      5-min Rain = 0
KST2 130416Z 18005KT M02/M07 A3036 RMK A01 T10151071  RH  066%=      5-min Rain = 0
KST2 130417Z 18006KT M02/M07 A3036 RMK A01 T10151071  RH  066%=      5-min Rain = 0
KST2 130418Z 18006KT M02/M07 A3036 RMK A01 T10151071  RH  066%=      5-min Rain = 0
KST2 130419Z 18006KT M02/M07 A3036 RMK A01 T10151070  RH  066%=      5-min Rain = 0
KST2 130420Z 17006KT M02/M07 A3036 RMK A01 T10151070  RH  066%=      5-min Rain = 0
KST2 130421Z 18006KT M02/M07 A3035 RMK A01 T10151070  RH  066%=      5-min Rain = 0
KST2 130422Z 18006KT M02/M07 A3035 RMK A01 T10161070  RH  067%=      5-min Rain = 0
KST2 130423Z 18006KT M02/M07 A3036 RMK A01 T10151070  RH  066%=      5-min Rain = 0
KST2 130424Z 18006KT M02/M07 A3036 RMK A01 T10151071  RH  066%=      5-min Rain = 0
KST2 130425Z 18006KT M02/M07 A3036 RMK A01 T10161070  RH  067%=      5-min Rain = 0
KST2 130426Z 18006KT M02/M07 A3036 RMK A01 T10151071  RH  066%=      5-min Rain = 0
KST2 130427Z 18007KT M02/M07 A3036 RMK A01 T10151072  RH  065%=      5-min Rain = 0
KST2 130428Z 18006KT M02/M07 A3036 RMK A01 T10151072  RH  065%=      5-min Rain = 0
KST2 130429Z 18006KT M02/M07 A3036 RMK A01 T10151071  RH  066%=      5-min Rain = 0
KST2 130430Z 18006KT M02/M07 A3036 RMK A01 T10151070  RH  066%=      5-min Rain = 0
KST2 130431Z 18005KT M02/M07 A3036 RMK A01 T10151070  RH  066%=      5-min Rain = 0
KST2 130432Z 18005KT M02/M07 A3036 RMK A01 T10151070  RH  066%=      5-min Rain = 0
KST2 130433Z 18006KT M02/M07 A3036 RMK A01 T10161070  RH  067%=      5-min Rain = 0
KST2 130434Z 18006KT M02/M07 A3035 RMK A01 T10161070  RH  067%=      5-min Rain = 0
KST2 130435Z 18006KT M02/M07 A3035 RMK A01 T10151070  RH  067%=      5-min Rain = 0
KST2 130436Z 18006KT M02/M07 A3035 RMK A01 T10161069  RH  067%=      5-min Rain = 0
KST2 130437Z 18006KT M02/M07 A3035 RMK A01 T10161070  RH  067%=      5-min Rain = 0
KST2 130438Z 18006KT M02/M07 A3035 RMK A01 T10161070  RH  066%=      5-min Rain = 0
KST2 130439Z 19006KT M02/M07 A3035 RMK A01 T10161070  RH  067%=      5-min Rain = 0
KST2 130440Z 19006KT M02/M07 A3035 RMK A01 T10161070  RH  067%=      5-min Rain = 0
KST2 130441Z 19006KT M02/M07 A3035 RMK A01 T10161071  RH  066%=      5-min Rain = 0
KST2 130442Z 19006KT M02/M07 A3035 RMK A01 T10161071  RH  066%=      5-min Rain = 0
KST2 130443Z 18006KT M02/M07 A3035 RMK A01 T10161070  RH  067%=      5-min Rain = 0
KST2 130444Z 18005KT M02/M07 A3035 RMK A01 T10161068  RH  068%=      5-min Rain = 0
KST2 130445Z 18006KT M02/M07 A3035 RMK A01 T10161067  RH  068%=      5-min Rain = 0
KST2 130446Z 18006KT M02/M07 A3035 RMK A01 T10161068  RH  068%=      5-min Rain = 0
KST2 130447Z 18006KT M02/M07 A3035 RMK A01 T10161067  RH  068%=      5-min Rain = 0
KST2 130448Z 18006KT M02/M07 A3035 RMK A01 T10161067  RH  068%=      5-min Rain = 0
KST2 130449Z 18006KT M02/M07 A3035 RMK A01 T10161067  RH  068%=      5-min Rain = 0
KST2 130450Z 18005KT M02/M07 A3035 RMK A01 T10171067  RH  069%=      5-min Rain = 0
KST2 130451Z 18005KT M02/M07 A3035 RMK A01 T10171065  RH  069%=      5-min Rain = 0
KST2 130452Z 18005KT M02/M06 A3035 RMK A01 T10161064  RH  070%=      5-min Rain = 0
KST2 130453Z 18005KT M02/M07 A3035 RMK A01 T10161065  RH  070%=      5-min Rain = 0
KST2 130454Z 18005KT M02/M07 A3035 RMK A01 T10171065  RH  070%=      5-min Rain = 0
KST2 130455Z 18004KT M02/M07 A3034 RMK A01 T10171065  RH  070%=      5-min Rain = 0
KST2 130456Z 17004KT M02/M06 A3034 RMK A01 T10171064  RH  071%=      5-min Rain = 0
KST2 130457Z 18004KT M02/M06 A3034 RMK A01 T10171063  RH  071%=      5-min Rain = 0
KST2 130458Z 18004KT M02/M06 A3034 RMK A01 T10171063  RH  071%=      5-min Rain = 0
KST2 130459Z 17004KT M02/M06 A3034 RMK A01 T10171063  RH  071%=      5-min Rain = 0
KST2 130500Z 17004KT M02/M06 A3034 RMK A01 T10171062  RH  071%=      5-min Rain = 0
KST2 130501Z 17004KT M02/M06 A3034 RMK A01 T10181062  RH  072%=      5-min Rain = 0
KST2 130502Z 17004KT M02/M06 A3034 RMK A01 T10181061  RH  072%=      5-min Rain = 0
KST2 130503Z 18004KT M02/M06 A3034 RMK A01 T10181061  RH  072%=      5-min Rain = 0
KST2 130504Z 17004KT M02/M06 A3034 RMK A01 T10181061  RH  072%=      5-min Rain = 0
KST2 130505Z 17004KT M02/M06 A3033 RMK A01 T10181063  RH  072%=      5-min Rain = 0
KST2 130506Z 17004KT M02/M06 A3033 RMK A01 T10181062  RH  072%=      5-min Rain = 0
KST2 130507Z 17005KT M02/M06 A3033 RMK A01 T10181062  RH  072%=      5-min Rain = 0
KST2 130508Z 17005KT M02/M06 A3033 RMK A01 T10181063  RH  072%=      5-min Rain = 0
KST2 130509Z 17005KT M02/M06 A3033 RMK A01 T10181063  RH  072%=      5-min Rain = 0
KST2 130510Z 17005KT M02/M06 A3033 RMK A01 T10181061  RH  072%=      5-min Rain = 0
KST2 130511Z 18005KT M02/M06 A3033 RMK A01 T10181061  RH  072%=      5-min Rain = 0
KST2 130512Z 17005KT M02/M06 A3033 RMK A01 T10181062  RH  072%=      5-min Rain = 0
KST2 130513Z 17005KT M02/M06 A3033 RMK A01 T10191062  RH  072%=      5-min Rain = 0
KST2 130514Z 17005KT M02/M06 A3033 RMK A01 T10181061  RH  072%=      5-min Rain = 0
KST2 130515Z 17005KT M02/M06 A3033 RMK A01 T10191061  RH  073%=      5-min Rain = 0
KST2 130516Z 17004KT M02/M06 A3033 RMK A01 T10191061  RH  073%=      5-min Rain = 0
KST2 130517Z 17005KT M02/M06 A3033 RMK A01 T10191061  RH  073%=      5-min Rain = 0
KST2 130518Z 18005KT M02/M06 A3033 RMK A01 T10191061  RH  073%=      5-min Rain = 0
KST2 130519Z 17005KT M02/M06 A3033 RMK A01 T10191061  RH  073%=      5-min Rain = 0
KST2 130520Z 18005KT M02/M06 A3033 RMK A01 T10191062  RH  072%=      5-min Rain = 0
KST2 130521Z 18005KT M02/M06 A3033 RMK A01 T10191062  RH  072%=      5-min Rain = 0
KST2 130522Z 18005KT M02/M06 A3033 RMK A01 T10191062  RH  072%=      5-min Rain = 0
KST2 130523Z 17005KT M02/M06 A3032 RMK A01 T10191062  RH  073%=      5-min Rain = 0
KST2 130524Z 18006KT M02/M06 A3032 RMK A01 T10191062  RH  072%=      5-min Rain = 0
KST2 130525Z 18006KT M02/M06 A3032 RMK A01 T10191063  RH  072%=      5-min Rain = 0
KST2 130526Z 18007KT M02/M06 A3032 RMK A01 T10191064  RH  071%=      5-min Rain = 0
KST2 130527Z 18007KT M02/M07 A3032 RMK A01 T10191065  RH  071%=      5-min Rain = 0
KST2 130528Z 18007KT M02/M07 A3032 RMK A01 T10181065  RH  070%=      5-min Rain = 0
KST2 130529Z 17006KT M02/M07 A3032 RMK A01 T10181066  RH  070%=      5-min Rain = 0
KST2 130530Z 17006KT M02/M07 A3032 RMK A01 T10181066  RH  069%=      5-min Rain = 0
KST2 130531Z 18006KT M02/M07 A3032 RMK A01 T10171065  RH  070%=      5-min Rain = 0
KST2 130532Z 18006KT M02/M07 A3032 RMK A01 T10171065  RH  070%=      5-min Rain = 0
KST2 130533Z 18006KT M02/M06 A3032 RMK A01 T10171064  RH  070%=      5-min Rain = 0
KST2 130534Z 18005KT M02/M06 A3032 RMK A01 T10171064  RH  070%=      5-min Rain = 0
KST2 130535Z 17005KT M02/M06 A3032 RMK A01 T10171064  RH  071%=      5-min Rain = 0
KST2 130536Z 17005KT M02/M06 A3032 RMK A01 T10171064  RH  070%=      5-min Rain = 0
KST2 130537Z 17005KT M02/M06 A3032 RMK A01 T10171063  RH  071%=      5-min Rain = 0
KST2 130538Z 17006KT M02/M06 A3031 RMK A01 T10171064  RH  071%=      5-min Rain = 0
KST2 130539Z 17006KT M02/M06 A3031 RMK A01 T10171064  RH  070%=      5-min Rain = 0
KST2 130540Z 17006KT M02/M06 A3031 RMK A01 T10171064  RH  070%=      5-min Rain = 0
KST2 130541Z 17006KT M02/M06 A3031 RMK A01 T10171063  RH  071%=      5-min Rain = 0
KST2 130542Z 18006KT M02/M06 A3031 RMK A01 T10171063  RH  071%=      5-min Rain = 0
KST2 130543Z 18006KT M02/M06 A3031 RMK A01 T10171063  RH  071%=      5-min Rain = 0
KST2 130544Z 18006KT M02/M06 A3031 RMK A01 T10171062  RH  071%=      5-min Rain = 0
KST2 130545Z 18006KT M02/M06 A3031 RMK A01 T10171063  RH  071%=      5-min Rain = 0
KST2 130546Z 18006KT M02/M06 A3031 RMK A01 T10171063  RH  071%=      5-min Rain = 0
KST2 130547Z 18006KT M02/M06 A3031 RMK A01 T10171062  RH  071%=      5-min Rain = 0
KST2 130548Z 18006KT M02/M06 A3031 RMK A01 T10171063  RH  071%=      5-min Rain = 0
KST2 130549Z 18006KT M02/M06 A3031 RMK A01 T10171063  RH  071%=      5-min Rain = 0
KST2 130550Z 18005KT M02/M06 A3031 RMK A01 T10171062  RH  072%=      5-min Rain = 0
KST2 130551Z 18006KT M02/M06 A3031 RMK A01 T10171061  RH  072%=      5-min Rain = 0
KST2 130552Z 18006KT M02/M06 A3031 RMK A01 T10171061  RH  072%=      5-min Rain = 0
KST2 130553Z 17006KT M02/M06 A3031 RMK A01 T10181061  RH  072%=      5-min Rain = 0
KST2 130554Z 18007KT M02/M06 A3031 RMK A01 T10181061  RH  072%=      5-min Rain = 0
KST2 130555Z 18007KT M02/M06 A3031 RMK A01 T10181062  RH  072%=      5-min Rain = 0
KST2 130556Z 18006KT M02/M06 A3031 RMK A01 T10181062  RH  072%=      5-min Rain = 0
KST2 130557Z 18006KT M02/M06 A3031 RMK A01 T10181061  RH  072%=      5-min Rain = 0
KST2 130558Z 18006KT M02/M06 A3031 RMK A01 T10181060  RH  073%=      5-min Rain = 0
KST2 130559Z 18006KT M02/M06 A3031 RMK A01 T10191060  RH  074%=      5-min Rain = 0

Page generated in 0.0875 seconds.